<?xml version="1.0" encoding="UTF-8" standalone="no" ?>
<gpx xmlns="http://www.topografix.com/GPX/1/1" xmlns:xsi="http://www.w3.org/2001/XMLSchema-instance" xsi:schemaLocation="http://www.topografix.com/GPX/1/1 http://www.topografix.com/GPX/1/1/gpx.xsd" version="1.1" creator="VisuGPX - https://www.visugpx.com">
  <metadata>
    <name>Brancion</name>
    <desc><![CDATA[Très sympa. Sans difficulté.]]></desc>
  </metadata>
  <trk>
    <name><![CDATA[2016-06-06 11:39:54]]></name>
    <trkseg>
      <trkpt lat="46.53316" lon="4.80214">
        <ele>303.43</ele>
        <time>2016-06-06T07:10:11Z</time>
      </trkpt>
      <trkpt lat="46.53315" lon="4.80212">
        <ele>303.91</ele>
        <time>2016-06-06T07:10:28Z</time>
      </trkpt>
      <trkpt lat="46.53311" lon="4.8021">
        <ele>304.88</ele>
        <time>2016-06-06T07:10:31Z</time>
      </trkpt>
      <trkpt lat="46.53308" lon="4.8021">
        <ele>304.88</ele>
        <time>2016-06-06T07:10:32Z</time>
      </trkpt>
      <trkpt lat="46.53306" lon="4.80209">
        <ele>305.36</ele>
        <time>2016-06-06T07:10:33Z</time>
      </trkpt>
      <trkpt lat="46.53304" lon="4.80209">
        <ele>305.36</ele>
        <time>2016-06-06T07:10:34Z</time>
      </trkpt>
      <trkpt lat="46.53283" lon="4.80199">
        <ele>300.55</ele>
        <time>2016-06-06T07:10:45Z</time>
      </trkpt>
      <trkpt lat="46.53254" lon="4.80189">
        <ele>297.67</ele>
        <time>2016-06-06T07:10:58Z</time>
      </trkpt>
      <trkpt lat="46.5321" lon="4.80183">
        <ele>296.22</ele>
        <time>2016-06-06T07:11:10Z</time>
      </trkpt>
      <trkpt lat="46.53206" lon="4.80182">
        <ele>296.22</ele>
        <time>2016-06-06T07:11:11Z</time>
      </trkpt>
      <trkpt lat="46.53203" lon="4.80181">
        <ele>296.22</ele>
        <time>2016-06-06T07:11:12Z</time>
      </trkpt>
      <trkpt lat="46.53193" lon="4.80183">
        <ele>296.22</ele>
        <time>2016-06-06T07:11:16Z</time>
      </trkpt>
      <trkpt lat="46.53191" lon="4.80187">
        <ele>296.22</ele>
        <time>2016-06-06T07:11:17Z</time>
      </trkpt>
      <trkpt lat="46.53191" lon="4.80189">
        <ele>296.7</ele>
        <time>2016-06-06T07:11:18Z</time>
      </trkpt>
      <trkpt lat="46.5319" lon="4.80193">
        <ele>296.7</ele>
        <time>2016-06-06T07:11:19Z</time>
      </trkpt>
      <trkpt lat="46.53189" lon="4.80196">
        <ele>296.7</ele>
        <time>2016-06-06T07:11:20Z</time>
      </trkpt>
      <trkpt lat="46.53189" lon="4.802">
        <ele>296.7</ele>
        <time>2016-06-06T07:11:21Z</time>
      </trkpt>
      <trkpt lat="46.53189" lon="4.80203">
        <ele>296.7</ele>
        <time>2016-06-06T07:11:22Z</time>
      </trkpt>
      <trkpt lat="46.53188" lon="4.80207">
        <ele>296.7</ele>
        <time>2016-06-06T07:11:23Z</time>
      </trkpt>
      <trkpt lat="46.53188" lon="4.80211">
        <ele>296.7</ele>
        <time>2016-06-06T07:11:24Z</time>
      </trkpt>
      <trkpt lat="46.53188" lon="4.80214">
        <ele>296.22</ele>
        <time>2016-06-06T07:11:25Z</time>
      </trkpt>
      <trkpt lat="46.53188" lon="4.80263">
        <ele>296.22</ele>
        <time>2016-06-06T07:11:38Z</time>
      </trkpt>
      <trkpt lat="46.53185" lon="4.80321">
        <ele>295.26</ele>
        <time>2016-06-06T07:11:51Z</time>
      </trkpt>
      <trkpt lat="46.53187" lon="4.80333">
        <ele>295.26</ele>
        <time>2016-06-06T07:11:53Z</time>
      </trkpt>
      <trkpt lat="46.53207" lon="4.80392">
        <ele>296.22</ele>
        <time>2016-06-06T07:12:04Z</time>
      </trkpt>
      <trkpt lat="46.53213" lon="4.80409">
        <ele>295.74</ele>
        <time>2016-06-06T07:12:07Z</time>
      </trkpt>
      <trkpt lat="46.53243" lon="4.80506">
        <ele>295.74</ele>
        <time>2016-06-06T07:12:23Z</time>
      </trkpt>
      <trkpt lat="46.53259" lon="4.80601">
        <ele>294.3</ele>
        <time>2016-06-06T07:12:37Z</time>
      </trkpt>
      <trkpt lat="46.53244" lon="4.80726">
        <ele>292.38</ele>
        <time>2016-06-06T07:12:55Z</time>
      </trkpt>
      <trkpt lat="46.53217" lon="4.8082">
        <ele>289.97</ele>
        <time>2016-06-06T07:13:08Z</time>
      </trkpt>
      <trkpt lat="46.53208" lon="4.80831">
        <ele>289.97</ele>
        <time>2016-06-06T07:13:10Z</time>
      </trkpt>
      <trkpt lat="46.53204" lon="4.80835">
        <ele>289.49</ele>
        <time>2016-06-06T07:13:11Z</time>
      </trkpt>
      <trkpt lat="46.532" lon="4.80839">
        <ele>289.49</ele>
        <time>2016-06-06T07:13:12Z</time>
      </trkpt>
      <trkpt lat="46.53195" lon="4.80843">
        <ele>289.49</ele>
        <time>2016-06-06T07:13:13Z</time>
      </trkpt>
      <trkpt lat="46.5319" lon="4.80845">
        <ele>289.49</ele>
        <time>2016-06-06T07:13:14Z</time>
      </trkpt>
      <trkpt lat="46.53186" lon="4.80848">
        <ele>289.49</ele>
        <time>2016-06-06T07:13:15Z</time>
      </trkpt>
      <trkpt lat="46.53181" lon="4.80849">
        <ele>289.49</ele>
        <time>2016-06-06T07:13:16Z</time>
      </trkpt>
      <trkpt lat="46.53177" lon="4.8085">
        <ele>289.49</ele>
        <time>2016-06-06T07:13:17Z</time>
      </trkpt>
      <trkpt lat="46.531" lon="4.80854">
        <ele>289.49</ele>
        <time>2016-06-06T07:13:35Z</time>
      </trkpt>
      <trkpt lat="46.53045" lon="4.80873">
        <ele>286.61</ele>
        <time>2016-06-06T07:13:44Z</time>
      </trkpt>
      <trkpt lat="46.53037" lon="4.80875">
        <ele>286.61</ele>
        <time>2016-06-06T07:13:45Z</time>
      </trkpt>
      <trkpt lat="46.5303" lon="4.80877">
        <ele>286.13</ele>
        <time>2016-06-06T07:13:46Z</time>
      </trkpt>
      <trkpt lat="46.52911" lon="4.80912">
        <ele>283.73</ele>
        <time>2016-06-06T07:14:03Z</time>
      </trkpt>
      <trkpt lat="46.52834" lon="4.80934">
        <ele>281.32</ele>
        <time>2016-06-06T07:14:16Z</time>
      </trkpt>
      <trkpt lat="46.52801" lon="4.80946">
        <ele>279.88</ele>
        <time>2016-06-06T07:14:21Z</time>
      </trkpt>
      <trkpt lat="46.52782" lon="4.8096">
        <ele>278.44</ele>
        <time>2016-06-06T07:14:24Z</time>
      </trkpt>
      <trkpt lat="46.52776" lon="4.80967">
        <ele>277.96</ele>
        <time>2016-06-06T07:14:25Z</time>
      </trkpt>
      <trkpt lat="46.5277" lon="4.80974">
        <ele>277.48</ele>
        <time>2016-06-06T07:14:26Z</time>
      </trkpt>
      <trkpt lat="46.52761" lon="4.80989">
        <ele>277</ele>
        <time>2016-06-06T07:14:28Z</time>
      </trkpt>
      <trkpt lat="46.52757" lon="4.80996">
        <ele>277</ele>
        <time>2016-06-06T07:14:29Z</time>
      </trkpt>
      <trkpt lat="46.52754" lon="4.81004">
        <ele>276.52</ele>
        <time>2016-06-06T07:14:30Z</time>
      </trkpt>
      <trkpt lat="46.5275" lon="4.8101">
        <ele>276.52</ele>
        <time>2016-06-06T07:14:31Z</time>
      </trkpt>
      <trkpt lat="46.52745" lon="4.81015">
        <ele>276.04</ele>
        <time>2016-06-06T07:14:32Z</time>
      </trkpt>
      <trkpt lat="46.5274" lon="4.81019">
        <ele>276.04</ele>
        <time>2016-06-06T07:14:33Z</time>
      </trkpt>
      <trkpt lat="46.52735" lon="4.81022">
        <ele>275.56</ele>
        <time>2016-06-06T07:14:34Z</time>
      </trkpt>
      <trkpt lat="46.52729" lon="4.81023">
        <ele>275.56</ele>
        <time>2016-06-06T07:14:35Z</time>
      </trkpt>
      <trkpt lat="46.52723" lon="4.81024">
        <ele>275.56</ele>
        <time>2016-06-06T07:14:36Z</time>
      </trkpt>
      <trkpt lat="46.52719" lon="4.81024">
        <ele>275.07</ele>
        <time>2016-06-06T07:14:37Z</time>
      </trkpt>
      <trkpt lat="46.52715" lon="4.81024">
        <ele>275.07</ele>
        <time>2016-06-06T07:14:38Z</time>
      </trkpt>
      <trkpt lat="46.5271" lon="4.81023">
        <ele>275.07</ele>
        <time>2016-06-06T07:14:40Z</time>
      </trkpt>
      <trkpt lat="46.52709" lon="4.81021">
        <ele>274.59</ele>
        <time>2016-06-06T07:14:41Z</time>
      </trkpt>
      <trkpt lat="46.52708" lon="4.8102">
        <ele>274.59</ele>
        <time>2016-06-06T07:14:42Z</time>
      </trkpt>
      <trkpt lat="46.52708" lon="4.81018">
        <ele>275.07</ele>
        <time>2016-06-06T07:14:43Z</time>
      </trkpt>
      <trkpt lat="46.52708" lon="4.81016">
        <ele>275.07</ele>
        <time>2016-06-06T07:14:44Z</time>
      </trkpt>
      <trkpt lat="46.52716" lon="4.80976">
        <ele>277</ele>
        <time>2016-06-06T07:14:59Z</time>
      </trkpt>
      <trkpt lat="46.5272" lon="4.80937">
        <ele>280.36</ele>
        <time>2016-06-06T07:15:14Z</time>
      </trkpt>
      <trkpt lat="46.52705" lon="4.80908">
        <ele>282.77</ele>
        <time>2016-06-06T07:15:28Z</time>
      </trkpt>
      <trkpt lat="46.52685" lon="4.80883">
        <ele>283.25</ele>
        <time>2016-06-06T07:15:43Z</time>
      </trkpt>
      <trkpt lat="46.52665" lon="4.80862">
        <ele>285.17</ele>
        <time>2016-06-06T07:15:58Z</time>
      </trkpt>
      <trkpt lat="46.52664" lon="4.8086">
        <ele>285.17</ele>
        <time>2016-06-06T07:15:59Z</time>
      </trkpt>
      <trkpt lat="46.52663" lon="4.80858">
        <ele>285.17</ele>
        <time>2016-06-06T07:16:00Z</time>
      </trkpt>
      <trkpt lat="46.52661" lon="4.80857">
        <ele>285.17</ele>
        <time>2016-06-06T07:16:01Z</time>
      </trkpt>
      <trkpt lat="46.52645" lon="4.80842">
        <ele>290.46</ele>
        <time>2016-06-06T07:16:14Z</time>
      </trkpt>
      <trkpt lat="46.52628" lon="4.80825">
        <ele>293.82</ele>
        <time>2016-06-06T07:16:27Z</time>
      </trkpt>
      <trkpt lat="46.52606" lon="4.80807">
        <ele>296.22</ele>
        <time>2016-06-06T07:16:42Z</time>
      </trkpt>
      <trkpt lat="46.52601" lon="4.80804">
        <ele>298.15</ele>
        <time>2016-06-06T07:16:46Z</time>
      </trkpt>
      <trkpt lat="46.52595" lon="4.80801">
        <ele>298.63</ele>
        <time>2016-06-06T07:16:50Z</time>
      </trkpt>
      <trkpt lat="46.52586" lon="4.80794">
        <ele>299.59</ele>
        <time>2016-06-06T07:16:57Z</time>
      </trkpt>
      <trkpt lat="46.52561" lon="4.80783">
        <ele>302.47</ele>
        <time>2016-06-06T07:17:14Z</time>
      </trkpt>
      <trkpt lat="46.5254" lon="4.8077">
        <ele>304.39</ele>
        <time>2016-06-06T07:17:29Z</time>
      </trkpt>
      <trkpt lat="46.52521" lon="4.80755">
        <ele>306.32</ele>
        <time>2016-06-06T07:17:43Z</time>
      </trkpt>
      <trkpt lat="46.52497" lon="4.80734">
        <ele>307.76</ele>
        <time>2016-06-06T07:18:01Z</time>
      </trkpt>
      <trkpt lat="46.52483" lon="4.80724">
        <ele>309.2</ele>
        <time>2016-06-06T07:18:10Z</time>
      </trkpt>
      <trkpt lat="46.52467" lon="4.80711">
        <ele>309.68</ele>
        <time>2016-06-06T07:18:21Z</time>
      </trkpt>
      <trkpt lat="46.52441" lon="4.80685">
        <ele>311.6</ele>
        <time>2016-06-06T07:18:41Z</time>
      </trkpt>
      <trkpt lat="46.5243" lon="4.80676">
        <ele>312.57</ele>
        <time>2016-06-06T07:18:49Z</time>
      </trkpt>
      <trkpt lat="46.52406" lon="4.80655">
        <ele>314.49</ele>
        <time>2016-06-06T07:19:06Z</time>
      </trkpt>
      <trkpt lat="46.52378" lon="4.80633">
        <ele>316.41</ele>
        <time>2016-06-06T07:19:25Z</time>
      </trkpt>
      <trkpt lat="46.52354" lon="4.80611">
        <ele>318.81</ele>
        <time>2016-06-06T07:19:41Z</time>
      </trkpt>
      <trkpt lat="46.52324" lon="4.80583">
        <ele>321.22</ele>
        <time>2016-06-06T07:20:00Z</time>
      </trkpt>
      <trkpt lat="46.523" lon="4.80559">
        <ele>323.14</ele>
        <time>2016-06-06T07:20:15Z</time>
      </trkpt>
      <trkpt lat="46.5227" lon="4.8053">
        <ele>325.54</ele>
        <time>2016-06-06T07:20:34Z</time>
      </trkpt>
      <trkpt lat="46.52247" lon="4.80512">
        <ele>327.47</ele>
        <time>2016-06-06T07:20:49Z</time>
      </trkpt>
      <trkpt lat="46.52219" lon="4.80496">
        <ele>331.31</ele>
        <time>2016-06-06T07:21:06Z</time>
      </trkpt>
      <trkpt lat="46.52187" lon="4.80471">
        <ele>334.2</ele>
        <time>2016-06-06T07:21:26Z</time>
      </trkpt>
      <trkpt lat="46.52164" lon="4.80446">
        <ele>337.08</ele>
        <time>2016-06-06T07:21:43Z</time>
      </trkpt>
      <trkpt lat="46.52137" lon="4.80422">
        <ele>339.48</ele>
        <time>2016-06-06T07:22:00Z</time>
      </trkpt>
      <trkpt lat="46.52102" lon="4.80396">
        <ele>341.41</ele>
        <time>2016-06-06T07:22:19Z</time>
      </trkpt>
      <trkpt lat="46.52074" lon="4.8038">
        <ele>341.41</ele>
        <time>2016-06-06T07:22:33Z</time>
      </trkpt>
      <trkpt lat="46.52053" lon="4.80358">
        <ele>342.37</ele>
        <time>2016-06-06T07:22:48Z</time>
      </trkpt>
      <trkpt lat="46.52054" lon="4.80359">
        <ele>342.85</ele>
        <time>2016-06-06T07:23:02Z</time>
      </trkpt>
      <trkpt lat="46.52053" lon="4.80358">
        <ele>343.33</ele>
        <time>2016-06-06T07:23:30Z</time>
      </trkpt>
      <trkpt lat="46.52053" lon="4.80358">
        <ele>344.29</ele>
        <time>2016-06-06T07:23:56Z</time>
      </trkpt>
      <trkpt lat="46.52053" lon="4.80357">
        <ele>344.29</ele>
        <time>2016-06-06T07:24:28Z</time>
      </trkpt>
      <trkpt lat="46.52051" lon="4.80352">
        <ele>344.29</ele>
        <time>2016-06-06T07:24:36Z</time>
      </trkpt>
      <trkpt lat="46.52046" lon="4.80353">
        <ele>344.29</ele>
        <time>2016-06-06T07:24:40Z</time>
      </trkpt>
      <trkpt lat="46.52044" lon="4.80355">
        <ele>344.29</ele>
        <time>2016-06-06T07:24:42Z</time>
      </trkpt>
      <trkpt lat="46.52043" lon="4.80359">
        <ele>344.29</ele>
        <time>2016-06-06T07:24:44Z</time>
      </trkpt>
      <trkpt lat="46.52048" lon="4.80362">
        <ele>343.81</ele>
        <time>2016-06-06T07:24:47Z</time>
      </trkpt>
      <trkpt lat="46.5205" lon="4.80363">
        <ele>343.81</ele>
        <time>2016-06-06T07:24:48Z</time>
      </trkpt>
      <trkpt lat="46.52067" lon="4.80381">
        <ele>342.85</ele>
        <time>2016-06-06T07:24:57Z</time>
      </trkpt>
      <trkpt lat="46.52072" lon="4.80377">
        <ele>342.85</ele>
        <time>2016-06-06T07:25:01Z</time>
      </trkpt>
      <trkpt lat="46.52054" lon="4.80359">
        <ele>342.37</ele>
        <time>2016-06-06T07:25:13Z</time>
      </trkpt>
      <trkpt lat="46.52073" lon="4.8032">
        <ele>342.37</ele>
        <time>2016-06-06T07:25:28Z</time>
      </trkpt>
      <trkpt lat="46.52099" lon="4.80273">
        <ele>342.85</ele>
        <time>2016-06-06T07:25:41Z</time>
      </trkpt>
      <trkpt lat="46.52098" lon="4.80271">
        <ele>342.85</ele>
        <time>2016-06-06T07:25:42Z</time>
      </trkpt>
      <trkpt lat="46.52095" lon="4.8027">
        <ele>342.85</ele>
        <time>2016-06-06T07:25:43Z</time>
      </trkpt>
      <trkpt lat="46.52093" lon="4.80272">
        <ele>342.37</ele>
        <time>2016-06-06T07:25:44Z</time>
      </trkpt>
      <trkpt lat="46.5209" lon="4.80274">
        <ele>342.37</ele>
        <time>2016-06-06T07:25:45Z</time>
      </trkpt>
      <trkpt lat="46.52088" lon="4.80275">
        <ele>341.89</ele>
        <time>2016-06-06T07:25:46Z</time>
      </trkpt>
      <trkpt lat="46.52085" lon="4.80276">
        <ele>341.89</ele>
        <time>2016-06-06T07:25:47Z</time>
      </trkpt>
      <trkpt lat="46.52076" lon="4.80268">
        <ele>342.85</ele>
        <time>2016-06-06T07:25:53Z</time>
      </trkpt>
      <trkpt lat="46.52053" lon="4.80249">
        <ele>345.25</ele>
        <time>2016-06-06T07:26:08Z</time>
      </trkpt>
      <trkpt lat="46.52028" lon="4.80226">
        <ele>348.13</ele>
        <time>2016-06-06T07:26:25Z</time>
      </trkpt>
      <trkpt lat="46.52025" lon="4.80223">
        <ele>348.13</ele>
        <time>2016-06-06T07:26:27Z</time>
      </trkpt>
      <trkpt lat="46.5202" lon="4.80217">
        <ele>348.62</ele>
        <time>2016-06-06T07:26:31Z</time>
      </trkpt>
      <trkpt lat="46.52001" lon="4.80201">
        <ele>351.02</ele>
        <time>2016-06-06T07:26:43Z</time>
      </trkpt>
      <trkpt lat="46.51999" lon="4.80197">
        <ele>351.5</ele>
        <time>2016-06-06T07:26:55Z</time>
      </trkpt>
      <trkpt lat="46.52002" lon="4.80194">
        <ele>352.94</ele>
        <time>2016-06-06T07:26:59Z</time>
      </trkpt>
      <trkpt lat="46.52005" lon="4.80186">
        <ele>353.9</ele>
        <time>2016-06-06T07:27:13Z</time>
      </trkpt>
      <trkpt lat="46.52004" lon="4.80185">
        <ele>354.38</ele>
        <time>2016-06-06T07:27:17Z</time>
      </trkpt>
      <trkpt lat="46.51985" lon="4.80171">
        <ele>355.34</ele>
        <time>2016-06-06T07:27:32Z</time>
      </trkpt>
      <trkpt lat="46.51955" lon="4.8016">
        <ele>355.34</ele>
        <time>2016-06-06T07:27:50Z</time>
      </trkpt>
      <trkpt lat="46.51947" lon="4.80155">
        <ele>355.83</ele>
        <time>2016-06-06T07:27:55Z</time>
      </trkpt>
      <trkpt lat="46.51939" lon="4.80151">
        <ele>355.83</ele>
        <time>2016-06-06T07:28:00Z</time>
      </trkpt>
      <trkpt lat="46.51918" lon="4.80137">
        <ele>357.75</ele>
        <time>2016-06-06T07:28:14Z</time>
      </trkpt>
      <trkpt lat="46.51916" lon="4.80135">
        <ele>357.75</ele>
        <time>2016-06-06T07:28:15Z</time>
      </trkpt>
      <trkpt lat="46.51915" lon="4.80127">
        <ele>358.71</ele>
        <time>2016-06-06T07:28:19Z</time>
      </trkpt>
      <trkpt lat="46.51894" lon="4.80109">
        <ele>361.11</ele>
        <time>2016-06-06T07:28:35Z</time>
      </trkpt>
      <trkpt lat="46.51868" lon="4.80094">
        <ele>363.04</ele>
        <time>2016-06-06T07:28:51Z</time>
      </trkpt>
      <trkpt lat="46.5184" lon="4.80079">
        <ele>364.96</ele>
        <time>2016-06-06T07:29:08Z</time>
      </trkpt>
      <trkpt lat="46.51837" lon="4.80079">
        <ele>365.44</ele>
        <time>2016-06-06T07:29:10Z</time>
      </trkpt>
      <trkpt lat="46.51812" lon="4.8011">
        <ele>367.84</ele>
        <time>2016-06-06T07:29:28Z</time>
      </trkpt>
      <trkpt lat="46.51787" lon="4.80135">
        <ele>370.24</ele>
        <time>2016-06-06T07:29:44Z</time>
      </trkpt>
      <trkpt lat="46.51764" lon="4.80112">
        <ele>370.24</ele>
        <time>2016-06-06T07:29:57Z</time>
      </trkpt>
      <trkpt lat="46.51721" lon="4.80086">
        <ele>369.76</ele>
        <time>2016-06-06T07:30:14Z</time>
      </trkpt>
      <trkpt lat="46.51689" lon="4.80074">
        <ele>368.8</ele>
        <time>2016-06-06T07:30:25Z</time>
      </trkpt>
      <trkpt lat="46.51648" lon="4.80061">
        <ele>366.4</ele>
        <time>2016-06-06T07:30:36Z</time>
      </trkpt>
      <trkpt lat="46.51643" lon="4.8006">
        <ele>365.92</ele>
        <time>2016-06-06T07:30:37Z</time>
      </trkpt>
      <trkpt lat="46.51565" lon="4.80035">
        <ele>361.11</ele>
        <time>2016-06-06T07:30:51Z</time>
      </trkpt>
      <trkpt lat="46.51465" lon="4.79994">
        <ele>352.46</ele>
        <time>2016-06-06T07:31:04Z</time>
      </trkpt>
      <trkpt lat="46.51345" lon="4.79922">
        <ele>343.81</ele>
        <time>2016-06-06T07:31:17Z</time>
      </trkpt>
      <trkpt lat="46.51273" lon="4.79884">
        <ele>339.48</ele>
        <time>2016-06-06T07:31:27Z</time>
      </trkpt>
      <trkpt lat="46.51187" lon="4.79848">
        <ele>331.79</ele>
        <time>2016-06-06T07:31:36Z</time>
      </trkpt>
      <trkpt lat="46.51179" lon="4.79841">
        <ele>331.79</ele>
        <time>2016-06-06T07:31:37Z</time>
      </trkpt>
      <trkpt lat="46.51171" lon="4.79833">
        <ele>331.79</ele>
        <time>2016-06-06T07:31:38Z</time>
      </trkpt>
      <trkpt lat="46.5113" lon="4.79782">
        <ele>334.2</ele>
        <time>2016-06-06T07:31:46Z</time>
      </trkpt>
      <trkpt lat="46.51114" lon="4.7974">
        <ele>337.08</ele>
        <time>2016-06-06T07:31:58Z</time>
      </trkpt>
      <trkpt lat="46.51102" lon="4.79704">
        <ele>338.52</ele>
        <time>2016-06-06T07:32:12Z</time>
      </trkpt>
      <trkpt lat="46.51096" lon="4.79696">
        <ele>339</ele>
        <time>2016-06-06T07:32:24Z</time>
      </trkpt>
      <trkpt lat="46.51087" lon="4.7969">
        <ele>339</ele>
        <time>2016-06-06T07:32:44Z</time>
      </trkpt>
      <trkpt lat="46.51048" lon="4.79673">
        <ele>336.12</ele>
        <time>2016-06-06T07:32:55Z</time>
      </trkpt>
      <trkpt lat="46.51043" lon="4.79674">
        <ele>335.64</ele>
        <time>2016-06-06T07:32:56Z</time>
      </trkpt>
      <trkpt lat="46.51008" lon="4.79676">
        <ele>332.75</ele>
        <time>2016-06-06T07:33:02Z</time>
      </trkpt>
      <trkpt lat="46.50923" lon="4.79642">
        <ele>326.02</ele>
        <time>2016-06-06T07:33:13Z</time>
      </trkpt>
      <trkpt lat="46.5085" lon="4.79606">
        <ele>319.78</ele>
        <time>2016-06-06T07:33:24Z</time>
      </trkpt>
      <trkpt lat="46.50846" lon="4.79606">
        <ele>319.3</ele>
        <time>2016-06-06T07:33:26Z</time>
      </trkpt>
      <trkpt lat="46.50845" lon="4.79608">
        <ele>319.3</ele>
        <time>2016-06-06T07:33:27Z</time>
      </trkpt>
      <trkpt lat="46.50844" lon="4.79611">
        <ele>319.3</ele>
        <time>2016-06-06T07:33:28Z</time>
      </trkpt>
      <trkpt lat="46.5084" lon="4.79634">
        <ele>318.81</ele>
        <time>2016-06-06T07:33:33Z</time>
      </trkpt>
      <trkpt lat="46.50818" lon="4.79716">
        <ele>317.37</ele>
        <time>2016-06-06T07:33:47Z</time>
      </trkpt>
      <trkpt lat="46.508" lon="4.79721">
        <ele>316.41</ele>
        <time>2016-06-06T07:33:52Z</time>
      </trkpt>
      <trkpt lat="46.50783" lon="4.79723">
        <ele>313.53</ele>
        <time>2016-06-06T07:33:56Z</time>
      </trkpt>
      <trkpt lat="46.50779" lon="4.79723">
        <ele>312.57</ele>
        <time>2016-06-06T07:33:57Z</time>
      </trkpt>
      <trkpt lat="46.50776" lon="4.79723">
        <ele>312.09</ele>
        <time>2016-06-06T07:33:58Z</time>
      </trkpt>
      <trkpt lat="46.50774" lon="4.79723">
        <ele>311.6</ele>
        <time>2016-06-06T07:33:59Z</time>
      </trkpt>
      <trkpt lat="46.50772" lon="4.79724">
        <ele>311.12</ele>
        <time>2016-06-06T07:34:00Z</time>
      </trkpt>
      <trkpt lat="46.50771" lon="4.79725">
        <ele>311.12</ele>
        <time>2016-06-06T07:34:01Z</time>
      </trkpt>
      <trkpt lat="46.50755" lon="4.79731">
        <ele>310.16</ele>
        <time>2016-06-06T07:34:10Z</time>
      </trkpt>
      <trkpt lat="46.50714" lon="4.79724">
        <ele>304.88</ele>
        <time>2016-06-06T07:34:18Z</time>
      </trkpt>
      <trkpt lat="46.50703" lon="4.79726">
        <ele>303.91</ele>
        <time>2016-06-06T07:34:20Z</time>
      </trkpt>
      <trkpt lat="46.5069" lon="4.79728">
        <ele>302.95</ele>
        <time>2016-06-06T07:34:22Z</time>
      </trkpt>
      <trkpt lat="46.50685" lon="4.79729">
        <ele>302.47</ele>
        <time>2016-06-06T07:34:23Z</time>
      </trkpt>
      <trkpt lat="46.50661" lon="4.79727">
        <ele>302.47</ele>
        <time>2016-06-06T07:34:27Z</time>
      </trkpt>
      <trkpt lat="46.50656" lon="4.79729">
        <ele>302.95</ele>
        <time>2016-06-06T07:34:28Z</time>
      </trkpt>
      <trkpt lat="46.50651" lon="4.79731">
        <ele>302.95</ele>
        <time>2016-06-06T07:34:29Z</time>
      </trkpt>
      <trkpt lat="46.50647" lon="4.79734">
        <ele>302.95</ele>
        <time>2016-06-06T07:34:30Z</time>
      </trkpt>
      <trkpt lat="46.50644" lon="4.79739">
        <ele>302.95</ele>
        <time>2016-06-06T07:34:31Z</time>
      </trkpt>
      <trkpt lat="46.50642" lon="4.79743">
        <ele>302.95</ele>
        <time>2016-06-06T07:34:32Z</time>
      </trkpt>
      <trkpt lat="46.50642" lon="4.79747">
        <ele>303.43</ele>
        <time>2016-06-06T07:34:33Z</time>
      </trkpt>
      <trkpt lat="46.50642" lon="4.79751">
        <ele>303.43</ele>
        <time>2016-06-06T07:34:34Z</time>
      </trkpt>
      <trkpt lat="46.50642" lon="4.79754">
        <ele>303.91</ele>
        <time>2016-06-06T07:34:35Z</time>
      </trkpt>
      <trkpt lat="46.50643" lon="4.79757">
        <ele>303.91</ele>
        <time>2016-06-06T07:34:36Z</time>
      </trkpt>
      <trkpt lat="46.50643" lon="4.7976">
        <ele>303.91</ele>
        <time>2016-06-06T07:34:37Z</time>
      </trkpt>
      <trkpt lat="46.50647" lon="4.79778">
        <ele>302.95</ele>
        <time>2016-06-06T07:34:43Z</time>
      </trkpt>
      <trkpt lat="46.50649" lon="4.79772">
        <ele>302.95</ele>
        <time>2016-06-06T07:34:46Z</time>
      </trkpt>
      <trkpt lat="46.50648" lon="4.79768">
        <ele>302.95</ele>
        <time>2016-06-06T07:34:47Z</time>
      </trkpt>
      <trkpt lat="46.50647" lon="4.79765">
        <ele>302.47</ele>
        <time>2016-06-06T07:34:48Z</time>
      </trkpt>
      <trkpt lat="46.50635" lon="4.79745">
        <ele>302.47</ele>
        <time>2016-06-06T07:34:56Z</time>
      </trkpt>
      <trkpt lat="46.50633" lon="4.79745">
        <ele>302.47</ele>
        <time>2016-06-06T07:34:57Z</time>
      </trkpt>
      <trkpt lat="46.50631" lon="4.79746">
        <ele>301.99</ele>
        <time>2016-06-06T07:34:58Z</time>
      </trkpt>
      <trkpt lat="46.50629" lon="4.79748">
        <ele>301.99</ele>
        <time>2016-06-06T07:34:59Z</time>
      </trkpt>
      <trkpt lat="46.50626" lon="4.79749">
        <ele>301.99</ele>
        <time>2016-06-06T07:35:00Z</time>
      </trkpt>
      <trkpt lat="46.50624" lon="4.79751">
        <ele>301.99</ele>
        <time>2016-06-06T07:35:01Z</time>
      </trkpt>
      <trkpt lat="46.50622" lon="4.79753">
        <ele>301.99</ele>
        <time>2016-06-06T07:35:02Z</time>
      </trkpt>
      <trkpt lat="46.5062" lon="4.79755">
        <ele>301.99</ele>
        <time>2016-06-06T07:35:03Z</time>
      </trkpt>
      <trkpt lat="46.50618" lon="4.79758">
        <ele>302.47</ele>
        <time>2016-06-06T07:35:04Z</time>
      </trkpt>
      <trkpt lat="46.50617" lon="4.7976">
        <ele>302.47</ele>
        <time>2016-06-06T07:35:05Z</time>
      </trkpt>
      <trkpt lat="46.50616" lon="4.79764">
        <ele>302.47</ele>
        <time>2016-06-06T07:35:06Z</time>
      </trkpt>
      <trkpt lat="46.50615" lon="4.79767">
        <ele>302.47</ele>
        <time>2016-06-06T07:35:07Z</time>
      </trkpt>
      <trkpt lat="46.50615" lon="4.79769">
        <ele>302.47</ele>
        <time>2016-06-06T07:35:08Z</time>
      </trkpt>
      <trkpt lat="46.50603" lon="4.79802">
        <ele>304.39</ele>
        <time>2016-06-06T07:35:21Z</time>
      </trkpt>
      <trkpt lat="46.50595" lon="4.79835">
        <ele>306.32</ele>
        <time>2016-06-06T07:35:33Z</time>
      </trkpt>
      <trkpt lat="46.506" lon="4.7987">
        <ele>308.72</ele>
        <time>2016-06-06T07:35:47Z</time>
      </trkpt>
      <trkpt lat="46.50605" lon="4.79893">
        <ele>309.2</ele>
        <time>2016-06-06T07:35:56Z</time>
      </trkpt>
      <trkpt lat="46.50607" lon="4.79908">
        <ele>310.16</ele>
        <time>2016-06-06T07:36:04Z</time>
      </trkpt>
      <trkpt lat="46.50607" lon="4.79949">
        <ele>314.01</ele>
        <time>2016-06-06T07:36:22Z</time>
      </trkpt>
      <trkpt lat="46.50606" lon="4.79984">
        <ele>317.85</ele>
        <time>2016-06-06T07:36:38Z</time>
      </trkpt>
      <trkpt lat="46.50601" lon="4.80021">
        <ele>322.66</ele>
        <time>2016-06-06T07:36:55Z</time>
      </trkpt>
      <trkpt lat="46.50596" lon="4.80062">
        <ele>328.43</ele>
        <time>2016-06-06T07:37:14Z</time>
      </trkpt>
      <trkpt lat="46.50594" lon="4.80098">
        <ele>332.75</ele>
        <time>2016-06-06T07:37:32Z</time>
      </trkpt>
      <trkpt lat="46.50606" lon="4.80132">
        <ele>336.12</ele>
        <time>2016-06-06T07:37:49Z</time>
      </trkpt>
      <trkpt lat="46.50608" lon="4.80139">
        <ele>337.56</ele>
        <time>2016-06-06T07:38:03Z</time>
      </trkpt>
      <trkpt lat="46.50609" lon="4.80145">
        <ele>338.52</ele>
        <time>2016-06-06T07:38:20Z</time>
      </trkpt>
      <trkpt lat="46.50618" lon="4.80169">
        <ele>341.89</ele>
        <time>2016-06-06T07:38:35Z</time>
      </trkpt>
      <trkpt lat="46.50599" lon="4.80184">
        <ele>344.29</ele>
        <time>2016-06-06T07:38:49Z</time>
      </trkpt>
      <trkpt lat="46.50565" lon="4.80192">
        <ele>344.29</ele>
        <time>2016-06-06T07:39:06Z</time>
      </trkpt>
      <trkpt lat="46.50526" lon="4.8022">
        <ele>346.21</ele>
        <time>2016-06-06T07:39:23Z</time>
      </trkpt>
      <trkpt lat="46.50497" lon="4.80246">
        <ele>346.69</ele>
        <time>2016-06-06T07:39:36Z</time>
      </trkpt>
      <trkpt lat="46.50455" lon="4.80287">
        <ele>345.73</ele>
        <time>2016-06-06T07:39:52Z</time>
      </trkpt>
      <trkpt lat="46.50442" lon="4.80306">
        <ele>344.77</ele>
        <time>2016-06-06T07:39:57Z</time>
      </trkpt>
      <trkpt lat="46.5038" lon="4.80385">
        <ele>342.85</ele>
        <time>2016-06-06T07:40:15Z</time>
      </trkpt>
      <trkpt lat="46.50354" lon="4.80416">
        <ele>341.41</ele>
        <time>2016-06-06T07:40:22Z</time>
      </trkpt>
      <trkpt lat="46.50346" lon="4.80425">
        <ele>340.92</ele>
        <time>2016-06-06T07:40:24Z</time>
      </trkpt>
      <trkpt lat="46.50287" lon="4.80524">
        <ele>337.08</ele>
        <time>2016-06-06T07:40:39Z</time>
      </trkpt>
      <trkpt lat="46.50269" lon="4.80553">
        <ele>335.16</ele>
        <time>2016-06-06T07:40:43Z</time>
      </trkpt>
      <trkpt lat="46.50238" lon="4.80594">
        <ele>333.23</ele>
        <time>2016-06-06T07:40:49Z</time>
      </trkpt>
      <trkpt lat="46.50208" lon="4.80652">
        <ele>330.83</ele>
        <time>2016-06-06T07:40:56Z</time>
      </trkpt>
      <trkpt lat="46.50156" lon="4.80723">
        <ele>326.5</ele>
        <time>2016-06-06T07:41:06Z</time>
      </trkpt>
      <trkpt lat="46.50127" lon="4.80794">
        <ele>322.66</ele>
        <time>2016-06-06T07:41:15Z</time>
      </trkpt>
      <trkpt lat="46.50076" lon="4.80882">
        <ele>317.85</ele>
        <time>2016-06-06T07:41:27Z</time>
      </trkpt>
      <trkpt lat="46.50072" lon="4.8089">
        <ele>317.37</ele>
        <time>2016-06-06T07:41:28Z</time>
      </trkpt>
      <trkpt lat="46.50055" lon="4.8091">
        <ele>316.41</ele>
        <time>2016-06-06T07:41:31Z</time>
      </trkpt>
      <trkpt lat="46.50014" lon="4.80936">
        <ele>312.57</ele>
        <time>2016-06-06T07:41:38Z</time>
      </trkpt>
      <trkpt lat="46.49992" lon="4.80968">
        <ele>308.72</ele>
        <time>2016-06-06T07:41:43Z</time>
      </trkpt>
      <trkpt lat="46.49971" lon="4.81025">
        <ele>305.84</ele>
        <time>2016-06-06T07:41:51Z</time>
      </trkpt>
      <trkpt lat="46.49937" lon="4.81085">
        <ele>302.95</ele>
        <time>2016-06-06T07:42:05Z</time>
      </trkpt>
      <trkpt lat="46.49901" lon="4.81145">
        <ele>301.03</ele>
        <time>2016-06-06T07:42:20Z</time>
      </trkpt>
      <trkpt lat="46.49876" lon="4.81223">
        <ele>299.59</ele>
        <time>2016-06-06T07:42:38Z</time>
      </trkpt>
      <trkpt lat="46.49852" lon="4.81297">
        <ele>298.15</ele>
        <time>2016-06-06T07:42:54Z</time>
      </trkpt>
      <trkpt lat="46.49828" lon="4.81355">
        <ele>296.22</ele>
        <time>2016-06-06T07:43:06Z</time>
      </trkpt>
      <trkpt lat="46.49804" lon="4.81413">
        <ele>295.74</ele>
        <time>2016-06-06T07:43:19Z</time>
      </trkpt>
      <trkpt lat="46.49774" lon="4.81484">
        <ele>295.74</ele>
        <time>2016-06-06T07:43:34Z</time>
      </trkpt>
      <trkpt lat="46.49758" lon="4.81518">
        <ele>294.78</ele>
        <time>2016-06-06T07:43:46Z</time>
      </trkpt>
      <trkpt lat="46.49758" lon="4.81518">
        <ele>294.3</ele>
        <time>2016-06-06T07:44:05Z</time>
      </trkpt>
      <trkpt lat="46.49756" lon="4.81519">
        <ele>293.34</ele>
        <time>2016-06-06T07:44:10Z</time>
      </trkpt>
      <trkpt lat="46.49754" lon="4.81519">
        <ele>293.34</ele>
        <time>2016-06-06T07:44:12Z</time>
      </trkpt>
      <trkpt lat="46.49751" lon="4.81514">
        <ele>292.38</ele>
        <time>2016-06-06T07:44:24Z</time>
      </trkpt>
      <trkpt lat="46.49751" lon="4.81517">
        <ele>295.74</ele>
        <time>2016-06-06T07:45:08Z</time>
      </trkpt>
      <trkpt lat="46.49752" lon="4.81515">
        <ele>295.26</ele>
        <time>2016-06-06T07:45:30Z</time>
      </trkpt>
      <trkpt lat="46.49744" lon="4.81514">
        <ele>295.26</ele>
        <time>2016-06-06T07:45:34Z</time>
      </trkpt>
      <trkpt lat="46.49699" lon="4.81519">
        <ele>293.34</ele>
        <time>2016-06-06T07:45:50Z</time>
      </trkpt>
      <trkpt lat="46.49663" lon="4.81529">
        <ele>294.78</ele>
        <time>2016-06-06T07:46:05Z</time>
      </trkpt>
      <trkpt lat="46.49645" lon="4.81542">
        <ele>300.07</ele>
        <time>2016-06-06T07:46:19Z</time>
      </trkpt>
      <trkpt lat="46.49629" lon="4.81553">
        <ele>303.43</ele>
        <time>2016-06-06T07:46:32Z</time>
      </trkpt>
      <trkpt lat="46.49612" lon="4.81564">
        <ele>307.76</ele>
        <time>2016-06-06T07:46:46Z</time>
      </trkpt>
      <trkpt lat="46.49595" lon="4.81576">
        <ele>311.12</ele>
        <time>2016-06-06T07:46:59Z</time>
      </trkpt>
      <trkpt lat="46.4959" lon="4.81579">
        <ele>312.09</ele>
        <time>2016-06-06T07:47:02Z</time>
      </trkpt>
      <trkpt lat="46.4957" lon="4.81596">
        <ele>317.85</ele>
        <time>2016-06-06T07:47:15Z</time>
      </trkpt>
      <trkpt lat="46.49537" lon="4.81619">
        <ele>318.81</ele>
        <time>2016-06-06T07:47:35Z</time>
      </trkpt>
      <trkpt lat="46.49514" lon="4.81632">
        <ele>321.22</ele>
        <time>2016-06-06T07:47:50Z</time>
      </trkpt>
      <trkpt lat="46.4949" lon="4.81635">
        <ele>321.22</ele>
        <time>2016-06-06T07:48:05Z</time>
      </trkpt>
      <trkpt lat="46.49465" lon="4.81632">
        <ele>321.7</ele>
        <time>2016-06-06T07:48:20Z</time>
      </trkpt>
      <trkpt lat="46.49441" lon="4.81625">
        <ele>324.1</ele>
        <time>2016-06-06T07:48:36Z</time>
      </trkpt>
      <trkpt lat="46.49416" lon="4.81617">
        <ele>326.5</ele>
        <time>2016-06-06T07:48:53Z</time>
      </trkpt>
      <trkpt lat="46.49387" lon="4.81604">
        <ele>327.95</ele>
        <time>2016-06-06T07:49:11Z</time>
      </trkpt>
      <trkpt lat="46.49362" lon="4.8159">
        <ele>326.99</ele>
        <time>2016-06-06T07:49:27Z</time>
      </trkpt>
      <trkpt lat="46.49341" lon="4.81582">
        <ele>326.5</ele>
        <time>2016-06-06T07:49:40Z</time>
      </trkpt>
      <trkpt lat="46.49313" lon="4.81574">
        <ele>327.47</ele>
        <time>2016-06-06T07:49:54Z</time>
      </trkpt>
      <trkpt lat="46.49282" lon="4.81561">
        <ele>327.95</ele>
        <time>2016-06-06T07:50:08Z</time>
      </trkpt>
      <trkpt lat="46.49247" lon="4.81548">
        <ele>328.43</ele>
        <time>2016-06-06T07:50:24Z</time>
      </trkpt>
      <trkpt lat="46.49212" lon="4.81537">
        <ele>328.91</ele>
        <time>2016-06-06T07:50:41Z</time>
      </trkpt>
      <trkpt lat="46.49181" lon="4.81528">
        <ele>331.31</ele>
        <time>2016-06-06T07:50:57Z</time>
      </trkpt>
      <trkpt lat="46.49155" lon="4.81531">
        <ele>332.75</ele>
        <time>2016-06-06T07:51:11Z</time>
      </trkpt>
      <trkpt lat="46.49126" lon="4.81524">
        <ele>331.31</ele>
        <time>2016-06-06T07:51:25Z</time>
      </trkpt>
      <trkpt lat="46.49124" lon="4.81524">
        <ele>330.83</ele>
        <time>2016-06-06T07:51:26Z</time>
      </trkpt>
      <trkpt lat="46.4909" lon="4.81517">
        <ele>330.83</ele>
        <time>2016-06-06T07:51:40Z</time>
      </trkpt>
      <trkpt lat="46.49056" lon="4.81497">
        <ele>329.39</ele>
        <time>2016-06-06T07:51:49Z</time>
      </trkpt>
      <trkpt lat="46.48989" lon="4.81454">
        <ele>324.1</ele>
        <time>2016-06-06T07:52:02Z</time>
      </trkpt>
      <trkpt lat="46.48976" lon="4.81446">
        <ele>322.66</ele>
        <time>2016-06-06T07:52:05Z</time>
      </trkpt>
      <trkpt lat="46.48957" lon="4.81442">
        <ele>321.7</ele>
        <time>2016-06-06T07:52:09Z</time>
      </trkpt>
      <trkpt lat="46.4894" lon="4.81439">
        <ele>322.18</ele>
        <time>2016-06-06T07:52:15Z</time>
      </trkpt>
      <trkpt lat="46.48933" lon="4.81443">
        <ele>323.14</ele>
        <time>2016-06-06T07:52:19Z</time>
      </trkpt>
      <trkpt lat="46.48896" lon="4.81454">
        <ele>324.58</ele>
        <time>2016-06-06T07:52:31Z</time>
      </trkpt>
      <trkpt lat="46.48865" lon="4.81458">
        <ele>322.66</ele>
        <time>2016-06-06T07:52:39Z</time>
      </trkpt>
      <trkpt lat="46.48853" lon="4.81457">
        <ele>321.7</ele>
        <time>2016-06-06T07:52:42Z</time>
      </trkpt>
      <trkpt lat="46.48848" lon="4.81457">
        <ele>321.22</ele>
        <time>2016-06-06T07:52:43Z</time>
      </trkpt>
      <trkpt lat="46.48843" lon="4.81458">
        <ele>320.74</ele>
        <time>2016-06-06T07:52:44Z</time>
      </trkpt>
      <trkpt lat="46.48838" lon="4.81458">
        <ele>320.26</ele>
        <time>2016-06-06T07:52:45Z</time>
      </trkpt>
      <trkpt lat="46.48832" lon="4.81458">
        <ele>319.78</ele>
        <time>2016-06-06T07:52:46Z</time>
      </trkpt>
      <trkpt lat="46.48827" lon="4.81458">
        <ele>319.3</ele>
        <time>2016-06-06T07:52:47Z</time>
      </trkpt>
      <trkpt lat="46.48821" lon="4.81457">
        <ele>318.33</ele>
        <time>2016-06-06T07:52:48Z</time>
      </trkpt>
      <trkpt lat="46.48816" lon="4.81456">
        <ele>317.85</ele>
        <time>2016-06-06T07:52:49Z</time>
      </trkpt>
      <trkpt lat="46.48811" lon="4.81455">
        <ele>317.37</ele>
        <time>2016-06-06T07:52:50Z</time>
      </trkpt>
      <trkpt lat="46.48802" lon="4.81454">
        <ele>315.45</ele>
        <time>2016-06-06T07:52:52Z</time>
      </trkpt>
      <trkpt lat="46.48798" lon="4.81455">
        <ele>314.49</ele>
        <time>2016-06-06T07:52:53Z</time>
      </trkpt>
      <trkpt lat="46.48794" lon="4.81454">
        <ele>314.01</ele>
        <time>2016-06-06T07:52:54Z</time>
      </trkpt>
      <trkpt lat="46.48784" lon="4.81452">
        <ele>312.09</ele>
        <time>2016-06-06T07:52:56Z</time>
      </trkpt>
      <trkpt lat="46.48779" lon="4.81452">
        <ele>311.12</ele>
        <time>2016-06-06T07:52:57Z</time>
      </trkpt>
      <trkpt lat="46.48774" lon="4.81453">
        <ele>310.16</ele>
        <time>2016-06-06T07:52:58Z</time>
      </trkpt>
      <trkpt lat="46.48763" lon="4.81453">
        <ele>308.24</ele>
        <time>2016-06-06T07:53:00Z</time>
      </trkpt>
      <trkpt lat="46.48758" lon="4.81452">
        <ele>307.28</ele>
        <time>2016-06-06T07:53:01Z</time>
      </trkpt>
      <trkpt lat="46.48753" lon="4.81451">
        <ele>306.32</ele>
        <time>2016-06-06T07:53:02Z</time>
      </trkpt>
      <trkpt lat="46.48733" lon="4.81454">
        <ele>302.47</ele>
        <time>2016-06-06T07:53:06Z</time>
      </trkpt>
      <trkpt lat="46.48728" lon="4.81457">
        <ele>301.99</ele>
        <time>2016-06-06T07:53:07Z</time>
      </trkpt>
      <trkpt lat="46.48724" lon="4.8146">
        <ele>301.03</ele>
        <time>2016-06-06T07:53:08Z</time>
      </trkpt>
      <trkpt lat="46.4872" lon="4.81462">
        <ele>300.55</ele>
        <time>2016-06-06T07:53:09Z</time>
      </trkpt>
      <trkpt lat="46.48715" lon="4.81462">
        <ele>299.59</ele>
        <time>2016-06-06T07:53:10Z</time>
      </trkpt>
      <trkpt lat="46.48711" lon="4.81461">
        <ele>298.63</ele>
        <time>2016-06-06T07:53:11Z</time>
      </trkpt>
      <trkpt lat="46.48706" lon="4.81459">
        <ele>298.15</ele>
        <time>2016-06-06T07:53:12Z</time>
      </trkpt>
      <trkpt lat="46.48702" lon="4.81457">
        <ele>297.18</ele>
        <time>2016-06-06T07:53:13Z</time>
      </trkpt>
      <trkpt lat="46.48697" lon="4.81455">
        <ele>296.22</ele>
        <time>2016-06-06T07:53:14Z</time>
      </trkpt>
      <trkpt lat="46.48691" lon="4.81455">
        <ele>295.74</ele>
        <time>2016-06-06T07:53:15Z</time>
      </trkpt>
      <trkpt lat="46.48664" lon="4.81453">
        <ele>291.42</ele>
        <time>2016-06-06T07:53:20Z</time>
      </trkpt>
      <trkpt lat="46.48659" lon="4.81452">
        <ele>290.46</ele>
        <time>2016-06-06T07:53:21Z</time>
      </trkpt>
      <trkpt lat="46.48656" lon="4.81451">
        <ele>289.97</ele>
        <time>2016-06-06T07:53:22Z</time>
      </trkpt>
      <trkpt lat="46.48654" lon="4.81449">
        <ele>289.49</ele>
        <time>2016-06-06T07:53:23Z</time>
      </trkpt>
      <trkpt lat="46.48652" lon="4.81448">
        <ele>289.01</ele>
        <time>2016-06-06T07:53:24Z</time>
      </trkpt>
      <trkpt lat="46.4865" lon="4.81448">
        <ele>289.01</ele>
        <time>2016-06-06T07:53:25Z</time>
      </trkpt>
      <trkpt lat="46.48649" lon="4.81447">
        <ele>288.53</ele>
        <time>2016-06-06T07:53:26Z</time>
      </trkpt>
      <trkpt lat="46.48649" lon="4.81446">
        <ele>288.53</ele>
        <time>2016-06-06T07:53:27Z</time>
      </trkpt>
      <trkpt lat="46.48648" lon="4.81446">
        <ele>289.49</ele>
        <time>2016-06-06T07:53:42Z</time>
      </trkpt>
      <trkpt lat="46.48647" lon="4.81447">
        <ele>289.49</ele>
        <time>2016-06-06T07:53:47Z</time>
      </trkpt>
      <trkpt lat="46.48646" lon="4.81448">
        <ele>289.49</ele>
        <time>2016-06-06T07:53:48Z</time>
      </trkpt>
      <trkpt lat="46.48644" lon="4.81449">
        <ele>289.01</ele>
        <time>2016-06-06T07:53:49Z</time>
      </trkpt>
      <trkpt lat="46.48641" lon="4.8145">
        <ele>288.53</ele>
        <time>2016-06-06T07:53:50Z</time>
      </trkpt>
      <trkpt lat="46.48637" lon="4.81449">
        <ele>288.05</ele>
        <time>2016-06-06T07:53:51Z</time>
      </trkpt>
      <trkpt lat="46.48633" lon="4.81448">
        <ele>287.57</ele>
        <time>2016-06-06T07:53:52Z</time>
      </trkpt>
      <trkpt lat="46.48628" lon="4.81446">
        <ele>287.09</ele>
        <time>2016-06-06T07:53:53Z</time>
      </trkpt>
      <trkpt lat="46.48624" lon="4.81444">
        <ele>286.61</ele>
        <time>2016-06-06T07:53:54Z</time>
      </trkpt>
      <trkpt lat="46.48619" lon="4.81442">
        <ele>286.13</ele>
        <time>2016-06-06T07:53:55Z</time>
      </trkpt>
      <trkpt lat="46.48599" lon="4.81433">
        <ele>284.69</ele>
        <time>2016-06-06T07:53:59Z</time>
      </trkpt>
      <trkpt lat="46.48593" lon="4.81432">
        <ele>284.21</ele>
        <time>2016-06-06T07:54:00Z</time>
      </trkpt>
      <trkpt lat="46.48588" lon="4.81431">
        <ele>283.73</ele>
        <time>2016-06-06T07:54:01Z</time>
      </trkpt>
      <trkpt lat="46.48582" lon="4.81429">
        <ele>283.25</ele>
        <time>2016-06-06T07:54:02Z</time>
      </trkpt>
      <trkpt lat="46.48577" lon="4.81425">
        <ele>282.77</ele>
        <time>2016-06-06T07:54:03Z</time>
      </trkpt>
      <trkpt lat="46.48572" lon="4.81422">
        <ele>282.28</ele>
        <time>2016-06-06T07:54:04Z</time>
      </trkpt>
      <trkpt lat="46.48567" lon="4.81417">
        <ele>281.8</ele>
        <time>2016-06-06T07:54:05Z</time>
      </trkpt>
      <trkpt lat="46.48529" lon="4.81391">
        <ele>277.96</ele>
        <time>2016-06-06T07:54:12Z</time>
      </trkpt>
      <trkpt lat="46.48524" lon="4.81389">
        <ele>277.48</ele>
        <time>2016-06-06T07:54:13Z</time>
      </trkpt>
      <trkpt lat="46.48512" lon="4.81388">
        <ele>276.52</ele>
        <time>2016-06-06T07:54:15Z</time>
      </trkpt>
      <trkpt lat="46.48501" lon="4.81388">
        <ele>276.04</ele>
        <time>2016-06-06T07:54:17Z</time>
      </trkpt>
      <trkpt lat="46.48496" lon="4.81386">
        <ele>275.56</ele>
        <time>2016-06-06T07:54:18Z</time>
      </trkpt>
      <trkpt lat="46.48491" lon="4.81383">
        <ele>275.07</ele>
        <time>2016-06-06T07:54:19Z</time>
      </trkpt>
      <trkpt lat="46.48463" lon="4.81369">
        <ele>272.67</ele>
        <time>2016-06-06T07:54:24Z</time>
      </trkpt>
      <trkpt lat="46.48458" lon="4.81367">
        <ele>272.19</ele>
        <time>2016-06-06T07:54:25Z</time>
      </trkpt>
      <trkpt lat="46.48453" lon="4.81367">
        <ele>272.19</ele>
        <time>2016-06-06T07:54:26Z</time>
      </trkpt>
      <trkpt lat="46.48436" lon="4.81373">
        <ele>271.23</ele>
        <time>2016-06-06T07:54:30Z</time>
      </trkpt>
      <trkpt lat="46.48434" lon="4.81377">
        <ele>270.75</ele>
        <time>2016-06-06T07:54:31Z</time>
      </trkpt>
      <trkpt lat="46.48432" lon="4.81383">
        <ele>270.27</ele>
        <time>2016-06-06T07:54:32Z</time>
      </trkpt>
      <trkpt lat="46.4843" lon="4.8139">
        <ele>269.79</ele>
        <time>2016-06-06T07:54:33Z</time>
      </trkpt>
      <trkpt lat="46.48429" lon="4.81398">
        <ele>269.31</ele>
        <time>2016-06-06T07:54:34Z</time>
      </trkpt>
      <trkpt lat="46.48412" lon="4.81511">
        <ele>261.62</ele>
        <time>2016-06-06T07:54:44Z</time>
      </trkpt>
      <trkpt lat="46.48403" lon="4.81565">
        <ele>259.21</ele>
        <time>2016-06-06T07:54:52Z</time>
      </trkpt>
      <trkpt lat="46.48401" lon="4.81568">
        <ele>259.21</ele>
        <time>2016-06-06T07:54:53Z</time>
      </trkpt>
      <trkpt lat="46.48399" lon="4.81568">
        <ele>259.21</ele>
        <time>2016-06-06T07:54:54Z</time>
      </trkpt>
      <trkpt lat="46.48397" lon="4.81567">
        <ele>259.21</ele>
        <time>2016-06-06T07:54:55Z</time>
      </trkpt>
      <trkpt lat="46.48362" lon="4.81547">
        <ele>255.85</ele>
        <time>2016-06-06T07:55:04Z</time>
      </trkpt>
      <trkpt lat="46.48347" lon="4.81532">
        <ele>254.41</ele>
        <time>2016-06-06T07:55:07Z</time>
      </trkpt>
      <trkpt lat="46.48339" lon="4.81523">
        <ele>253.44</ele>
        <time>2016-06-06T07:55:09Z</time>
      </trkpt>
      <trkpt lat="46.48335" lon="4.81521">
        <ele>252.96</ele>
        <time>2016-06-06T07:55:10Z</time>
      </trkpt>
      <trkpt lat="46.4833" lon="4.81518">
        <ele>252.48</ele>
        <time>2016-06-06T07:55:11Z</time>
      </trkpt>
      <trkpt lat="46.48278" lon="4.81492">
        <ele>248.16</ele>
        <time>2016-06-06T07:55:21Z</time>
      </trkpt>
      <trkpt lat="46.48253" lon="4.81484">
        <ele>245.75</ele>
        <time>2016-06-06T07:55:29Z</time>
      </trkpt>
      <trkpt lat="46.48226" lon="4.81472">
        <ele>244.31</ele>
        <time>2016-06-06T07:55:34Z</time>
      </trkpt>
      <trkpt lat="46.48203" lon="4.81457">
        <ele>243.35</ele>
        <time>2016-06-06T07:55:38Z</time>
      </trkpt>
      <trkpt lat="46.48178" lon="4.81435">
        <ele>242.87</ele>
        <time>2016-06-06T07:55:43Z</time>
      </trkpt>
      <trkpt lat="46.48174" lon="4.81429">
        <ele>242.87</ele>
        <time>2016-06-06T07:55:44Z</time>
      </trkpt>
      <trkpt lat="46.4817" lon="4.81423">
        <ele>242.39</ele>
        <time>2016-06-06T07:55:45Z</time>
      </trkpt>
      <trkpt lat="46.48164" lon="4.81418">
        <ele>241.91</ele>
        <time>2016-06-06T07:55:46Z</time>
      </trkpt>
      <trkpt lat="46.48158" lon="4.81413">
        <ele>240.95</ele>
        <time>2016-06-06T07:55:47Z</time>
      </trkpt>
      <trkpt lat="46.48151" lon="4.81409">
        <ele>240.47</ele>
        <time>2016-06-06T07:55:48Z</time>
      </trkpt>
      <trkpt lat="46.48143" lon="4.81407">
        <ele>239.99</ele>
        <time>2016-06-06T07:55:49Z</time>
      </trkpt>
      <trkpt lat="46.48118" lon="4.814">
        <ele>237.58</ele>
        <time>2016-06-06T07:55:52Z</time>
      </trkpt>
      <trkpt lat="46.48109" lon="4.81395">
        <ele>237.1</ele>
        <time>2016-06-06T07:55:53Z</time>
      </trkpt>
      <trkpt lat="46.48101" lon="4.81388">
        <ele>236.14</ele>
        <time>2016-06-06T07:55:54Z</time>
      </trkpt>
      <trkpt lat="46.48094" lon="4.8138">
        <ele>235.66</ele>
        <time>2016-06-06T07:55:55Z</time>
      </trkpt>
      <trkpt lat="46.48088" lon="4.81372">
        <ele>235.18</ele>
        <time>2016-06-06T07:55:56Z</time>
      </trkpt>
      <trkpt lat="46.48083" lon="4.81365">
        <ele>235.18</ele>
        <time>2016-06-06T07:55:57Z</time>
      </trkpt>
      <trkpt lat="46.48071" lon="4.81346">
        <ele>234.7</ele>
        <time>2016-06-06T07:56:01Z</time>
      </trkpt>
      <trkpt lat="46.48071" lon="4.81341">
        <ele>234.7</ele>
        <time>2016-06-06T07:56:02Z</time>
      </trkpt>
      <trkpt lat="46.48072" lon="4.81337">
        <ele>234.7</ele>
        <time>2016-06-06T07:56:03Z</time>
      </trkpt>
      <trkpt lat="46.48073" lon="4.81334">
        <ele>234.7</ele>
        <time>2016-06-06T07:56:04Z</time>
      </trkpt>
      <trkpt lat="46.48073" lon="4.8133">
        <ele>235.18</ele>
        <time>2016-06-06T07:56:05Z</time>
      </trkpt>
      <trkpt lat="46.48063" lon="4.81294">
        <ele>237.58</ele>
        <time>2016-06-06T07:56:17Z</time>
      </trkpt>
      <trkpt lat="46.48029" lon="4.81293">
        <ele>239.02</ele>
        <time>2016-06-06T07:56:31Z</time>
      </trkpt>
      <trkpt lat="46.48006" lon="4.81278">
        <ele>240.95</ele>
        <time>2016-06-06T07:56:43Z</time>
      </trkpt>
      <trkpt lat="46.48005" lon="4.81276">
        <ele>241.43</ele>
        <time>2016-06-06T07:56:44Z</time>
      </trkpt>
      <trkpt lat="46.48004" lon="4.81274">
        <ele>241.43</ele>
        <time>2016-06-06T07:56:45Z</time>
      </trkpt>
      <trkpt lat="46.47995" lon="4.81241">
        <ele>245.75</ele>
        <time>2016-06-06T07:57:00Z</time>
      </trkpt>
      <trkpt lat="46.47978" lon="4.81208">
        <ele>250.56</ele>
        <time>2016-06-06T07:57:19Z</time>
      </trkpt>
      <trkpt lat="46.47952" lon="4.81182">
        <ele>254.89</ele>
        <time>2016-06-06T07:57:40Z</time>
      </trkpt>
      <trkpt lat="46.47929" lon="4.81168">
        <ele>257.77</ele>
        <time>2016-06-06T07:57:56Z</time>
      </trkpt>
      <trkpt lat="46.47898" lon="4.81149">
        <ele>261.14</ele>
        <time>2016-06-06T07:58:17Z</time>
      </trkpt>
      <trkpt lat="46.47877" lon="4.81135">
        <ele>265.46</ele>
        <time>2016-06-06T07:58:33Z</time>
      </trkpt>
      <trkpt lat="46.4786" lon="4.81109">
        <ele>270.27</ele>
        <time>2016-06-06T07:58:49Z</time>
      </trkpt>
      <trkpt lat="46.47856" lon="4.81076">
        <ele>274.59</ele>
        <time>2016-06-06T07:59:04Z</time>
      </trkpt>
      <trkpt lat="46.47857" lon="4.81036">
        <ele>280.36</ele>
        <time>2016-06-06T07:59:22Z</time>
      </trkpt>
      <trkpt lat="46.47855" lon="4.81027">
        <ele>280.84</ele>
        <time>2016-06-06T07:59:26Z</time>
      </trkpt>
      <trkpt lat="46.47855" lon="4.81024">
        <ele>281.32</ele>
        <time>2016-06-06T07:59:27Z</time>
      </trkpt>
      <trkpt lat="46.47855" lon="4.81021">
        <ele>281.8</ele>
        <time>2016-06-06T07:59:28Z</time>
      </trkpt>
      <trkpt lat="46.47856" lon="4.81019">
        <ele>281.8</ele>
        <time>2016-06-06T07:59:29Z</time>
      </trkpt>
      <trkpt lat="46.47856" lon="4.81017">
        <ele>282.28</ele>
        <time>2016-06-06T07:59:30Z</time>
      </trkpt>
      <trkpt lat="46.47857" lon="4.81014">
        <ele>282.28</ele>
        <time>2016-06-06T07:59:31Z</time>
      </trkpt>
      <trkpt lat="46.47857" lon="4.81012">
        <ele>282.77</ele>
        <time>2016-06-06T07:59:32Z</time>
      </trkpt>
      <trkpt lat="46.47874" lon="4.80992">
        <ele>284.21</ele>
        <time>2016-06-06T07:59:47Z</time>
      </trkpt>
      <trkpt lat="46.47881" lon="4.80992">
        <ele>285.17</ele>
        <time>2016-06-06T07:59:52Z</time>
      </trkpt>
      <trkpt lat="46.47883" lon="4.80992">
        <ele>285.17</ele>
        <time>2016-06-06T07:59:53Z</time>
      </trkpt>
      <trkpt lat="46.47884" lon="4.80992">
        <ele>285.65</ele>
        <time>2016-06-06T07:59:54Z</time>
      </trkpt>
      <trkpt lat="46.47887" lon="4.8099">
        <ele>285.17</ele>
        <time>2016-06-06T08:00:10Z</time>
      </trkpt>
      <trkpt lat="46.47888" lon="4.8099">
        <ele>284.21</ele>
        <time>2016-06-06T08:00:38Z</time>
      </trkpt>
      <trkpt lat="46.47901" lon="4.80987">
        <ele>284.69</ele>
        <time>2016-06-06T08:00:49Z</time>
      </trkpt>
      <trkpt lat="46.4791" lon="4.80983">
        <ele>286.13</ele>
        <time>2016-06-06T08:01:03Z</time>
      </trkpt>
      <trkpt lat="46.4791" lon="4.80983">
        <ele>285.65</ele>
        <time>2016-06-06T08:01:11Z</time>
      </trkpt>
      <trkpt lat="46.47908" lon="4.80983">
        <ele>285.65</ele>
        <time>2016-06-06T08:01:12Z</time>
      </trkpt>
      <trkpt lat="46.47906" lon="4.80984">
        <ele>285.65</ele>
        <time>2016-06-06T08:01:13Z</time>
      </trkpt>
      <trkpt lat="46.47904" lon="4.80985">
        <ele>285.65</ele>
        <time>2016-06-06T08:01:14Z</time>
      </trkpt>
      <trkpt lat="46.47902" lon="4.80986">
        <ele>285.65</ele>
        <time>2016-06-06T08:01:15Z</time>
      </trkpt>
      <trkpt lat="46.47885" lon="4.80989">
        <ele>284.69</ele>
        <time>2016-06-06T08:01:21Z</time>
      </trkpt>
      <trkpt lat="46.47883" lon="4.80987">
        <ele>284.69</ele>
        <time>2016-06-06T08:01:22Z</time>
      </trkpt>
      <trkpt lat="46.47882" lon="4.80985">
        <ele>284.69</ele>
        <time>2016-06-06T08:01:23Z</time>
      </trkpt>
      <trkpt lat="46.47882" lon="4.80983">
        <ele>284.69</ele>
        <time>2016-06-06T08:01:24Z</time>
      </trkpt>
      <trkpt lat="46.47882" lon="4.8098">
        <ele>285.17</ele>
        <time>2016-06-06T08:01:25Z</time>
      </trkpt>
      <trkpt lat="46.47882" lon="4.80978">
        <ele>285.17</ele>
        <time>2016-06-06T08:01:26Z</time>
      </trkpt>
      <trkpt lat="46.47883" lon="4.80976">
        <ele>285.17</ele>
        <time>2016-06-06T08:01:27Z</time>
      </trkpt>
      <trkpt lat="46.47883" lon="4.80973">
        <ele>285.65</ele>
        <time>2016-06-06T08:01:28Z</time>
      </trkpt>
      <trkpt lat="46.47883" lon="4.8097">
        <ele>285.65</ele>
        <time>2016-06-06T08:01:29Z</time>
      </trkpt>
      <trkpt lat="46.47882" lon="4.8093">
        <ele>289.97</ele>
        <time>2016-06-06T08:01:45Z</time>
      </trkpt>
      <trkpt lat="46.4788" lon="4.80885">
        <ele>293.82</ele>
        <time>2016-06-06T08:02:02Z</time>
      </trkpt>
      <trkpt lat="46.4788" lon="4.80871">
        <ele>293.34</ele>
        <time>2016-06-06T08:02:07Z</time>
      </trkpt>
      <trkpt lat="46.47881" lon="4.80869">
        <ele>293.34</ele>
        <time>2016-06-06T08:02:08Z</time>
      </trkpt>
      <trkpt lat="46.47883" lon="4.80868">
        <ele>293.34</ele>
        <time>2016-06-06T08:02:09Z</time>
      </trkpt>
      <trkpt lat="46.4791" lon="4.80865">
        <ele>292.86</ele>
        <time>2016-06-06T08:02:22Z</time>
      </trkpt>
      <trkpt lat="46.47948" lon="4.80865">
        <ele>292.86</ele>
        <time>2016-06-06T08:02:38Z</time>
      </trkpt>
      <trkpt lat="46.47986" lon="4.80872">
        <ele>292.86</ele>
        <time>2016-06-06T08:02:54Z</time>
      </trkpt>
      <trkpt lat="46.48008" lon="4.80867">
        <ele>292.86</ele>
        <time>2016-06-06T08:03:05Z</time>
      </trkpt>
      <trkpt lat="46.48023" lon="4.80833">
        <ele>294.3</ele>
        <time>2016-06-06T08:03:19Z</time>
      </trkpt>
      <trkpt lat="46.48029" lon="4.80823">
        <ele>295.26</ele>
        <time>2016-06-06T08:03:24Z</time>
      </trkpt>
      <trkpt lat="46.48061" lon="4.80806">
        <ele>297.18</ele>
        <time>2016-06-06T08:03:40Z</time>
      </trkpt>
      <trkpt lat="46.48087" lon="4.80781">
        <ele>300.07</ele>
        <time>2016-06-06T08:03:55Z</time>
      </trkpt>
      <trkpt lat="46.48102" lon="4.80732">
        <ele>303.43</ele>
        <time>2016-06-06T08:04:14Z</time>
      </trkpt>
      <trkpt lat="46.48114" lon="4.80682">
        <ele>307.28</ele>
        <time>2016-06-06T08:04:34Z</time>
      </trkpt>
      <trkpt lat="46.48122" lon="4.80637">
        <ele>309.2</ele>
        <time>2016-06-06T08:04:49Z</time>
      </trkpt>
      <trkpt lat="46.48132" lon="4.80576">
        <ele>312.09</ele>
        <time>2016-06-06T08:05:04Z</time>
      </trkpt>
      <trkpt lat="46.48137" lon="4.80557">
        <ele>312.57</ele>
        <time>2016-06-06T08:05:10Z</time>
      </trkpt>
      <trkpt lat="46.48139" lon="4.80556">
        <ele>312.57</ele>
        <time>2016-06-06T08:05:11Z</time>
      </trkpt>
      <trkpt lat="46.4814" lon="4.80555">
        <ele>313.05</ele>
        <time>2016-06-06T08:05:12Z</time>
      </trkpt>
      <trkpt lat="46.48142" lon="4.80554">
        <ele>313.05</ele>
        <time>2016-06-06T08:05:13Z</time>
      </trkpt>
      <trkpt lat="46.48144" lon="4.80554">
        <ele>313.05</ele>
        <time>2016-06-06T08:05:14Z</time>
      </trkpt>
      <trkpt lat="46.48146" lon="4.80553">
        <ele>313.05</ele>
        <time>2016-06-06T08:05:15Z</time>
      </trkpt>
      <trkpt lat="46.48173" lon="4.8054">
        <ele>315.93</ele>
        <time>2016-06-06T08:05:29Z</time>
      </trkpt>
      <trkpt lat="46.48176" lon="4.8054">
        <ele>315.93</ele>
        <time>2016-06-06T08:05:30Z</time>
      </trkpt>
      <trkpt lat="46.48207" lon="4.80534">
        <ele>318.81</ele>
        <time>2016-06-06T08:05:44Z</time>
      </trkpt>
      <trkpt lat="46.48242" lon="4.8052">
        <ele>320.74</ele>
        <time>2016-06-06T08:05:59Z</time>
      </trkpt>
      <trkpt lat="46.48286" lon="4.80492">
        <ele>320.26</ele>
        <time>2016-06-06T08:06:18Z</time>
      </trkpt>
      <trkpt lat="46.48328" lon="4.80476">
        <ele>318.81</ele>
        <time>2016-06-06T08:06:36Z</time>
      </trkpt>
      <trkpt lat="46.48371" lon="4.8046">
        <ele>319.78</ele>
        <time>2016-06-06T08:06:54Z</time>
      </trkpt>
      <trkpt lat="46.48411" lon="4.80449">
        <ele>321.22</ele>
        <time>2016-06-06T08:07:09Z</time>
      </trkpt>
      <trkpt lat="46.4846" lon="4.80464">
        <ele>322.18</ele>
        <time>2016-06-06T08:07:24Z</time>
      </trkpt>
      <trkpt lat="46.48506" lon="4.80492">
        <ele>322.18</ele>
        <time>2016-06-06T08:07:36Z</time>
      </trkpt>
      <trkpt lat="46.48525" lon="4.8049">
        <ele>319.78</ele>
        <time>2016-06-06T08:07:42Z</time>
      </trkpt>
      <trkpt lat="46.48527" lon="4.80486">
        <ele>319.78</ele>
        <time>2016-06-06T08:07:43Z</time>
      </trkpt>
      <trkpt lat="46.48531" lon="4.80475">
        <ele>318.81</ele>
        <time>2016-06-06T08:07:45Z</time>
      </trkpt>
      <trkpt lat="46.4854" lon="4.80441">
        <ele>317.37</ele>
        <time>2016-06-06T08:07:51Z</time>
      </trkpt>
      <trkpt lat="46.4856" lon="4.80377">
        <ele>315.93</ele>
        <time>2016-06-06T08:08:02Z</time>
      </trkpt>
      <trkpt lat="46.48562" lon="4.80372">
        <ele>315.93</ele>
        <time>2016-06-06T08:08:03Z</time>
      </trkpt>
      <trkpt lat="46.48564" lon="4.80366">
        <ele>315.93</ele>
        <time>2016-06-06T08:08:04Z</time>
      </trkpt>
      <trkpt lat="46.48582" lon="4.80303">
        <ele>314.01</ele>
        <time>2016-06-06T08:08:15Z</time>
      </trkpt>
      <trkpt lat="46.48583" lon="4.80298">
        <ele>313.53</ele>
        <time>2016-06-06T08:08:16Z</time>
      </trkpt>
      <trkpt lat="46.48614" lon="4.80213">
        <ele>311.12</ele>
        <time>2016-06-06T08:08:29Z</time>
      </trkpt>
      <trkpt lat="46.48661" lon="4.80145">
        <ele>310.16</ele>
        <time>2016-06-06T08:08:40Z</time>
      </trkpt>
      <trkpt lat="46.48691" lon="4.80089">
        <ele>310.16</ele>
        <time>2016-06-06T08:08:49Z</time>
      </trkpt>
      <trkpt lat="46.48701" lon="4.80073">
        <ele>310.16</ele>
        <time>2016-06-06T08:08:52Z</time>
      </trkpt>
      <trkpt lat="46.48721" lon="4.80044">
        <ele>310.16</ele>
        <time>2016-06-06T08:08:58Z</time>
      </trkpt>
      <trkpt lat="46.48749" lon="4.79968">
        <ele>311.12</ele>
        <time>2016-06-06T08:09:13Z</time>
      </trkpt>
      <trkpt lat="46.48774" lon="4.79886">
        <ele>313.53</ele>
        <time>2016-06-06T08:09:30Z</time>
      </trkpt>
      <trkpt lat="46.48796" lon="4.79797">
        <ele>315.93</ele>
        <time>2016-06-06T08:09:50Z</time>
      </trkpt>
      <trkpt lat="46.48812" lon="4.79705">
        <ele>318.33</ele>
        <time>2016-06-06T08:10:11Z</time>
      </trkpt>
      <trkpt lat="46.48822" lon="4.79649">
        <ele>319.3</ele>
        <time>2016-06-06T08:10:25Z</time>
      </trkpt>
      <trkpt lat="46.48839" lon="4.79562">
        <ele>320.74</ele>
        <time>2016-06-06T08:10:45Z</time>
      </trkpt>
      <trkpt lat="46.48851" lon="4.79499">
        <ele>318.33</ele>
        <time>2016-06-06T08:10:58Z</time>
      </trkpt>
      <trkpt lat="46.48852" lon="4.79492">
        <ele>317.85</ele>
        <time>2016-06-06T08:10:59Z</time>
      </trkpt>
      <trkpt lat="46.48872" lon="4.79399">
        <ele>309.2</ele>
        <time>2016-06-06T08:11:10Z</time>
      </trkpt>
      <trkpt lat="46.48904" lon="4.79294">
        <ele>302.95</ele>
        <time>2016-06-06T08:11:23Z</time>
      </trkpt>
      <trkpt lat="46.48929" lon="4.79168">
        <ele>299.59</ele>
        <time>2016-06-06T08:11:36Z</time>
      </trkpt>
      <trkpt lat="46.48937" lon="4.79148">
        <ele>299.59</ele>
        <time>2016-06-06T08:11:39Z</time>
      </trkpt>
      <trkpt lat="46.48961" lon="4.7912">
        <ele>298.63</ele>
        <time>2016-06-06T08:11:49Z</time>
      </trkpt>
      <trkpt lat="46.48976" lon="4.79103">
        <ele>300.07</ele>
        <time>2016-06-06T08:11:59Z</time>
      </trkpt>
      <trkpt lat="46.49007" lon="4.79072">
        <ele>302.95</ele>
        <time>2016-06-06T08:12:18Z</time>
      </trkpt>
      <trkpt lat="46.49034" lon="4.79043">
        <ele>303.91</ele>
        <time>2016-06-06T08:12:35Z</time>
      </trkpt>
      <trkpt lat="46.49044" lon="4.79009">
        <ele>304.88</ele>
        <time>2016-06-06T08:12:48Z</time>
      </trkpt>
      <trkpt lat="46.49029" lon="4.7899">
        <ele>307.76</ele>
        <time>2016-06-06T08:12:59Z</time>
      </trkpt>
      <trkpt lat="46.49028" lon="4.78988">
        <ele>308.24</ele>
        <time>2016-06-06T08:13:00Z</time>
      </trkpt>
      <trkpt lat="46.49028" lon="4.78985">
        <ele>308.24</ele>
        <time>2016-06-06T08:13:01Z</time>
      </trkpt>
      <trkpt lat="46.49029" lon="4.7898">
        <ele>309.2</ele>
        <time>2016-06-06T08:13:03Z</time>
      </trkpt>
      <trkpt lat="46.49029" lon="4.78978">
        <ele>309.2</ele>
        <time>2016-06-06T08:13:04Z</time>
      </trkpt>
      <trkpt lat="46.4903" lon="4.78976">
        <ele>309.2</ele>
        <time>2016-06-06T08:13:05Z</time>
      </trkpt>
      <trkpt lat="46.4903" lon="4.78974">
        <ele>309.2</ele>
        <time>2016-06-06T08:13:06Z</time>
      </trkpt>
      <trkpt lat="46.49031" lon="4.78972">
        <ele>309.2</ele>
        <time>2016-06-06T08:13:07Z</time>
      </trkpt>
      <trkpt lat="46.49031" lon="4.78969">
        <ele>309.2</ele>
        <time>2016-06-06T08:13:08Z</time>
      </trkpt>
      <trkpt lat="46.49032" lon="4.78966">
        <ele>309.2</ele>
        <time>2016-06-06T08:13:09Z</time>
      </trkpt>
      <trkpt lat="46.49032" lon="4.78963">
        <ele>309.2</ele>
        <time>2016-06-06T08:13:10Z</time>
      </trkpt>
      <trkpt lat="46.49033" lon="4.78959">
        <ele>309.2</ele>
        <time>2016-06-06T08:13:11Z</time>
      </trkpt>
      <trkpt lat="46.49033" lon="4.78955">
        <ele>309.2</ele>
        <time>2016-06-06T08:13:12Z</time>
      </trkpt>
      <trkpt lat="46.49054" lon="4.78893">
        <ele>310.16</ele>
        <time>2016-06-06T08:13:28Z</time>
      </trkpt>
      <trkpt lat="46.49071" lon="4.78841">
        <ele>313.53</ele>
        <time>2016-06-06T08:13:45Z</time>
      </trkpt>
      <trkpt lat="46.49085" lon="4.78794">
        <ele>317.37</ele>
        <time>2016-06-06T08:14:04Z</time>
      </trkpt>
      <trkpt lat="46.49088" lon="4.78786">
        <ele>317.85</ele>
        <time>2016-06-06T08:14:08Z</time>
      </trkpt>
      <trkpt lat="46.49089" lon="4.78784">
        <ele>318.33</ele>
        <time>2016-06-06T08:14:09Z</time>
      </trkpt>
      <trkpt lat="46.4909" lon="4.78782">
        <ele>318.33</ele>
        <time>2016-06-06T08:14:10Z</time>
      </trkpt>
      <trkpt lat="46.49091" lon="4.7878">
        <ele>318.33</ele>
        <time>2016-06-06T08:14:11Z</time>
      </trkpt>
      <trkpt lat="46.49092" lon="4.78778">
        <ele>318.81</ele>
        <time>2016-06-06T08:14:12Z</time>
      </trkpt>
      <trkpt lat="46.49093" lon="4.78776">
        <ele>318.81</ele>
        <time>2016-06-06T08:14:13Z</time>
      </trkpt>
      <trkpt lat="46.49093" lon="4.78774">
        <ele>319.3</ele>
        <time>2016-06-06T08:14:14Z</time>
      </trkpt>
      <trkpt lat="46.49094" lon="4.78772">
        <ele>319.78</ele>
        <time>2016-06-06T08:14:15Z</time>
      </trkpt>
      <trkpt lat="46.49094" lon="4.7877">
        <ele>319.78</ele>
        <time>2016-06-06T08:14:16Z</time>
      </trkpt>
      <trkpt lat="46.49096" lon="4.78763">
        <ele>320.74</ele>
        <time>2016-06-06T08:14:19Z</time>
      </trkpt>
      <trkpt lat="46.49097" lon="4.78762">
        <ele>321.22</ele>
        <time>2016-06-06T08:14:20Z</time>
      </trkpt>
      <trkpt lat="46.49105" lon="4.78732">
        <ele>323.62</ele>
        <time>2016-06-06T08:14:33Z</time>
      </trkpt>
      <trkpt lat="46.49114" lon="4.78694">
        <ele>325.06</ele>
        <time>2016-06-06T08:14:49Z</time>
      </trkpt>
      <trkpt lat="46.49127" lon="4.78639">
        <ele>329.39</ele>
        <time>2016-06-06T08:15:13Z</time>
      </trkpt>
      <trkpt lat="46.49127" lon="4.78635">
        <ele>329.87</ele>
        <time>2016-06-06T08:15:17Z</time>
      </trkpt>
      <trkpt lat="46.49126" lon="4.78636">
        <ele>329.39</ele>
        <time>2016-06-06T08:15:18Z</time>
      </trkpt>
      <trkpt lat="46.49123" lon="4.78637">
        <ele>329.39</ele>
        <time>2016-06-06T08:15:20Z</time>
      </trkpt>
      <trkpt lat="46.49121" lon="4.78637">
        <ele>328.91</ele>
        <time>2016-06-06T08:15:21Z</time>
      </trkpt>
      <trkpt lat="46.4912" lon="4.78636">
        <ele>329.39</ele>
        <time>2016-06-06T08:15:22Z</time>
      </trkpt>
      <trkpt lat="46.49119" lon="4.78635">
        <ele>328.91</ele>
        <time>2016-06-06T08:15:23Z</time>
      </trkpt>
      <trkpt lat="46.49118" lon="4.78634">
        <ele>328.91</ele>
        <time>2016-06-06T08:15:24Z</time>
      </trkpt>
      <trkpt lat="46.49117" lon="4.78634">
        <ele>328.91</ele>
        <time>2016-06-06T08:15:25Z</time>
      </trkpt>
      <trkpt lat="46.49115" lon="4.78634">
        <ele>329.39</ele>
        <time>2016-06-06T08:15:26Z</time>
      </trkpt>
      <trkpt lat="46.49114" lon="4.78633">
        <ele>329.39</ele>
        <time>2016-06-06T08:15:27Z</time>
      </trkpt>
      <trkpt lat="46.49081" lon="4.78617">
        <ele>327.95</ele>
        <time>2016-06-06T08:15:44Z</time>
      </trkpt>
      <trkpt lat="46.49045" lon="4.786">
        <ele>326.02</ele>
        <time>2016-06-06T08:15:59Z</time>
      </trkpt>
      <trkpt lat="46.49016" lon="4.78586">
        <ele>325.54</ele>
        <time>2016-06-06T08:16:12Z</time>
      </trkpt>
      <trkpt lat="46.48975" lon="4.78565">
        <ele>322.18</ele>
        <time>2016-06-06T08:16:27Z</time>
      </trkpt>
      <trkpt lat="46.48959" lon="4.78556">
        <ele>321.22</ele>
        <time>2016-06-06T08:16:35Z</time>
      </trkpt>
      <trkpt lat="46.48958" lon="4.78554">
        <ele>321.22</ele>
        <time>2016-06-06T08:16:36Z</time>
      </trkpt>
      <trkpt lat="46.48957" lon="4.78551">
        <ele>321.22</ele>
        <time>2016-06-06T08:16:37Z</time>
      </trkpt>
      <trkpt lat="46.48957" lon="4.78549">
        <ele>321.22</ele>
        <time>2016-06-06T08:16:38Z</time>
      </trkpt>
      <trkpt lat="46.48957" lon="4.78546">
        <ele>321.7</ele>
        <time>2016-06-06T08:16:39Z</time>
      </trkpt>
      <trkpt lat="46.48958" lon="4.78543">
        <ele>321.7</ele>
        <time>2016-06-06T08:16:40Z</time>
      </trkpt>
      <trkpt lat="46.48958" lon="4.78541">
        <ele>322.18</ele>
        <time>2016-06-06T08:16:41Z</time>
      </trkpt>
      <trkpt lat="46.48958" lon="4.78539">
        <ele>322.66</ele>
        <time>2016-06-06T08:16:42Z</time>
      </trkpt>
      <trkpt lat="46.48958" lon="4.78536">
        <ele>322.66</ele>
        <time>2016-06-06T08:16:43Z</time>
      </trkpt>
      <trkpt lat="46.48959" lon="4.78534">
        <ele>323.14</ele>
        <time>2016-06-06T08:16:44Z</time>
      </trkpt>
      <trkpt lat="46.48961" lon="4.78495">
        <ele>326.99</ele>
        <time>2016-06-06T08:17:01Z</time>
      </trkpt>
      <trkpt lat="46.48964" lon="4.78458">
        <ele>330.83</ele>
        <time>2016-06-06T08:17:18Z</time>
      </trkpt>
      <trkpt lat="46.48966" lon="4.7842">
        <ele>334.68</ele>
        <time>2016-06-06T08:17:35Z</time>
      </trkpt>
      <trkpt lat="46.48954" lon="4.78401">
        <ele>335.16</ele>
        <time>2016-06-06T08:17:49Z</time>
      </trkpt>
      <trkpt lat="46.48931" lon="4.78395">
        <ele>333.71</ele>
        <time>2016-06-06T08:18:01Z</time>
      </trkpt>
      <trkpt lat="46.48924" lon="4.78389">
        <ele>333.71</ele>
        <time>2016-06-06T08:18:05Z</time>
      </trkpt>
      <trkpt lat="46.48923" lon="4.78387">
        <ele>333.23</ele>
        <time>2016-06-06T08:18:06Z</time>
      </trkpt>
      <trkpt lat="46.48921" lon="4.78386">
        <ele>333.71</ele>
        <time>2016-06-06T08:18:07Z</time>
      </trkpt>
      <trkpt lat="46.48895" lon="4.78372">
        <ele>331.79</ele>
        <time>2016-06-06T08:18:21Z</time>
      </trkpt>
      <trkpt lat="46.4886" lon="4.78373">
        <ele>331.79</ele>
        <time>2016-06-06T08:18:37Z</time>
      </trkpt>
      <trkpt lat="46.48842" lon="4.78373">
        <ele>331.79</ele>
        <time>2016-06-06T08:18:46Z</time>
      </trkpt>
      <trkpt lat="46.48841" lon="4.78371">
        <ele>332.27</ele>
        <time>2016-06-06T08:18:47Z</time>
      </trkpt>
      <trkpt lat="46.4884" lon="4.7837">
        <ele>332.27</ele>
        <time>2016-06-06T08:18:48Z</time>
      </trkpt>
      <trkpt lat="46.48828" lon="4.78347">
        <ele>334.2</ele>
        <time>2016-06-06T08:19:03Z</time>
      </trkpt>
      <trkpt lat="46.48827" lon="4.78345">
        <ele>334.2</ele>
        <time>2016-06-06T08:19:04Z</time>
      </trkpt>
      <trkpt lat="46.48826" lon="4.78344">
        <ele>334.68</ele>
        <time>2016-06-06T08:19:05Z</time>
      </trkpt>
      <trkpt lat="46.48826" lon="4.78342">
        <ele>335.16</ele>
        <time>2016-06-06T08:19:06Z</time>
      </trkpt>
      <trkpt lat="46.48825" lon="4.78341">
        <ele>336.12</ele>
        <time>2016-06-06T08:19:07Z</time>
      </trkpt>
      <trkpt lat="46.48824" lon="4.78339">
        <ele>336.6</ele>
        <time>2016-06-06T08:19:08Z</time>
      </trkpt>
      <trkpt lat="46.48824" lon="4.78337">
        <ele>337.56</ele>
        <time>2016-06-06T08:19:09Z</time>
      </trkpt>
      <trkpt lat="46.48824" lon="4.78335">
        <ele>338.04</ele>
        <time>2016-06-06T08:19:10Z</time>
      </trkpt>
      <trkpt lat="46.48824" lon="4.78333">
        <ele>338.04</ele>
        <time>2016-06-06T08:19:11Z</time>
      </trkpt>
      <trkpt lat="46.48824" lon="4.7833">
        <ele>338.52</ele>
        <time>2016-06-06T08:19:12Z</time>
      </trkpt>
      <trkpt lat="46.48824" lon="4.78328">
        <ele>339</ele>
        <time>2016-06-06T08:19:13Z</time>
      </trkpt>
      <trkpt lat="46.48824" lon="4.78326">
        <ele>339.48</ele>
        <time>2016-06-06T08:19:14Z</time>
      </trkpt>
      <trkpt lat="46.48825" lon="4.78324">
        <ele>339.48</ele>
        <time>2016-06-06T08:19:15Z</time>
      </trkpt>
      <trkpt lat="46.48826" lon="4.78322">
        <ele>339.96</ele>
        <time>2016-06-06T08:19:16Z</time>
      </trkpt>
      <trkpt lat="46.48826" lon="4.78321">
        <ele>339.96</ele>
        <time>2016-06-06T08:19:17Z</time>
      </trkpt>
      <trkpt lat="46.48827" lon="4.78319">
        <ele>339.96</ele>
        <time>2016-06-06T08:19:18Z</time>
      </trkpt>
      <trkpt lat="46.48827" lon="4.78316">
        <ele>339.96</ele>
        <time>2016-06-06T08:19:19Z</time>
      </trkpt>
      <trkpt lat="46.48837" lon="4.78283">
        <ele>343.81</ele>
        <time>2016-06-06T08:19:34Z</time>
      </trkpt>
      <trkpt lat="46.48847" lon="4.78245">
        <ele>347.17</ele>
        <time>2016-06-06T08:19:51Z</time>
      </trkpt>
      <trkpt lat="46.48861" lon="4.78219">
        <ele>349.58</ele>
        <time>2016-06-06T08:20:05Z</time>
      </trkpt>
      <trkpt lat="46.48881" lon="4.78198">
        <ele>351.02</ele>
        <time>2016-06-06T08:20:20Z</time>
      </trkpt>
      <trkpt lat="46.48902" lon="4.78172">
        <ele>354.86</ele>
        <time>2016-06-06T08:20:38Z</time>
      </trkpt>
      <trkpt lat="46.48925" lon="4.7814">
        <ele>355.83</ele>
        <time>2016-06-06T08:20:57Z</time>
      </trkpt>
      <trkpt lat="46.48946" lon="4.78119">
        <ele>356.79</ele>
        <time>2016-06-06T08:21:12Z</time>
      </trkpt>
      <trkpt lat="46.48966" lon="4.78095">
        <ele>359.67</ele>
        <time>2016-06-06T08:21:28Z</time>
      </trkpt>
      <trkpt lat="46.48971" lon="4.7809">
        <ele>360.63</ele>
        <time>2016-06-06T08:21:32Z</time>
      </trkpt>
      <trkpt lat="46.48973" lon="4.78089">
        <ele>361.11</ele>
        <time>2016-06-06T08:21:33Z</time>
      </trkpt>
      <trkpt lat="46.48974" lon="4.78087">
        <ele>361.11</ele>
        <time>2016-06-06T08:21:34Z</time>
      </trkpt>
      <trkpt lat="46.48995" lon="4.78078">
        <ele>364.96</ele>
        <time>2016-06-06T08:21:47Z</time>
      </trkpt>
      <trkpt lat="46.48996" lon="4.78079">
        <ele>365.44</ele>
        <time>2016-06-06T08:21:48Z</time>
      </trkpt>
      <trkpt lat="46.48998" lon="4.78079">
        <ele>365.44</ele>
        <time>2016-06-06T08:21:49Z</time>
      </trkpt>
      <trkpt lat="46.49" lon="4.7808">
        <ele>365.92</ele>
        <time>2016-06-06T08:21:50Z</time>
      </trkpt>
      <trkpt lat="46.49002" lon="4.7808">
        <ele>366.4</ele>
        <time>2016-06-06T08:21:51Z</time>
      </trkpt>
      <trkpt lat="46.49027" lon="4.78082">
        <ele>368.32</ele>
        <time>2016-06-06T08:22:07Z</time>
      </trkpt>
      <trkpt lat="46.49057" lon="4.78077">
        <ele>373.13</ele>
        <time>2016-06-06T08:22:27Z</time>
      </trkpt>
      <trkpt lat="46.49082" lon="4.78068">
        <ele>376.49</ele>
        <time>2016-06-06T08:22:43Z</time>
      </trkpt>
      <trkpt lat="46.4911" lon="4.78059">
        <ele>381.3</ele>
        <time>2016-06-06T08:23:01Z</time>
      </trkpt>
      <trkpt lat="46.49129" lon="4.78054">
        <ele>384.18</ele>
        <time>2016-06-06T08:23:14Z</time>
      </trkpt>
      <trkpt lat="46.49154" lon="4.7805">
        <ele>388.03</ele>
        <time>2016-06-06T08:23:30Z</time>
      </trkpt>
      <trkpt lat="46.49177" lon="4.78043">
        <ele>391.39</ele>
        <time>2016-06-06T08:23:45Z</time>
      </trkpt>
      <trkpt lat="46.492" lon="4.78032">
        <ele>394.76</ele>
        <time>2016-06-06T08:24:00Z</time>
      </trkpt>
      <trkpt lat="46.49222" lon="4.7802">
        <ele>398.12</ele>
        <time>2016-06-06T08:24:15Z</time>
      </trkpt>
      <trkpt lat="46.49241" lon="4.78">
        <ele>399.57</ele>
        <time>2016-06-06T08:24:31Z</time>
      </trkpt>
      <trkpt lat="46.49259" lon="4.77982">
        <ele>404.85</ele>
        <time>2016-06-06T08:24:47Z</time>
      </trkpt>
      <trkpt lat="46.49281" lon="4.77974">
        <ele>409.66</ele>
        <time>2016-06-06T08:25:01Z</time>
      </trkpt>
      <trkpt lat="46.49305" lon="4.77966">
        <ele>413.02</ele>
        <time>2016-06-06T08:25:16Z</time>
      </trkpt>
      <trkpt lat="46.49328" lon="4.77957">
        <ele>417.35</ele>
        <time>2016-06-06T08:25:31Z</time>
      </trkpt>
      <trkpt lat="46.49329" lon="4.77957">
        <ele>417.35</ele>
        <time>2016-06-06T08:25:32Z</time>
      </trkpt>
      <trkpt lat="46.49331" lon="4.77956">
        <ele>417.35</ele>
        <time>2016-06-06T08:25:33Z</time>
      </trkpt>
      <trkpt lat="46.49342" lon="4.77955">
        <ele>417.83</ele>
        <time>2016-06-06T08:25:39Z</time>
      </trkpt>
      <trkpt lat="46.49351" lon="4.7795">
        <ele>418.79</ele>
        <time>2016-06-06T08:25:52Z</time>
      </trkpt>
      <trkpt lat="46.4935" lon="4.77954">
        <ele>419.75</ele>
        <time>2016-06-06T08:26:12Z</time>
      </trkpt>
      <trkpt lat="46.49351" lon="4.77954">
        <ele>423.12</ele>
        <time>2016-06-06T08:26:40Z</time>
      </trkpt>
      <trkpt lat="46.49352" lon="4.77949">
        <ele>423.6</ele>
        <time>2016-06-06T08:26:55Z</time>
      </trkpt>
      <trkpt lat="46.49364" lon="4.77934">
        <ele>425.04</ele>
        <time>2016-06-06T08:27:08Z</time>
      </trkpt>
      <trkpt lat="46.49365" lon="4.77932">
        <ele>425.04</ele>
        <time>2016-06-06T08:27:09Z</time>
      </trkpt>
      <trkpt lat="46.49366" lon="4.7793">
        <ele>425.52</ele>
        <time>2016-06-06T08:27:10Z</time>
      </trkpt>
      <trkpt lat="46.49366" lon="4.77929">
        <ele>426</ele>
        <time>2016-06-06T08:27:11Z</time>
      </trkpt>
      <trkpt lat="46.49367" lon="4.77927">
        <ele>426</ele>
        <time>2016-06-06T08:27:12Z</time>
      </trkpt>
      <trkpt lat="46.49368" lon="4.77925">
        <ele>426.48</ele>
        <time>2016-06-06T08:27:13Z</time>
      </trkpt>
      <trkpt lat="46.49369" lon="4.77923">
        <ele>426.48</ele>
        <time>2016-06-06T08:27:14Z</time>
      </trkpt>
      <trkpt lat="46.4937" lon="4.77921">
        <ele>426.96</ele>
        <time>2016-06-06T08:27:15Z</time>
      </trkpt>
      <trkpt lat="46.4937" lon="4.77919">
        <ele>426.96</ele>
        <time>2016-06-06T08:27:16Z</time>
      </trkpt>
      <trkpt lat="46.49371" lon="4.77917">
        <ele>427.44</ele>
        <time>2016-06-06T08:27:17Z</time>
      </trkpt>
      <trkpt lat="46.49371" lon="4.77916">
        <ele>427.44</ele>
        <time>2016-06-06T08:27:18Z</time>
      </trkpt>
      <trkpt lat="46.49372" lon="4.77914">
        <ele>427.92</ele>
        <time>2016-06-06T08:27:19Z</time>
      </trkpt>
      <trkpt lat="46.49379" lon="4.77891">
        <ele>430.33</ele>
        <time>2016-06-06T08:27:31Z</time>
      </trkpt>
      <trkpt lat="46.49386" lon="4.77877">
        <ele>432.25</ele>
        <time>2016-06-06T08:27:44Z</time>
      </trkpt>
      <trkpt lat="46.49389" lon="4.77863">
        <ele>428.89</ele>
        <time>2016-06-06T08:28:15Z</time>
      </trkpt>
      <trkpt lat="46.49392" lon="4.77861">
        <ele>426.48</ele>
        <time>2016-06-06T08:28:41Z</time>
      </trkpt>
      <trkpt lat="46.49393" lon="4.77863">
        <ele>426.48</ele>
        <time>2016-06-06T08:29:10Z</time>
      </trkpt>
      <trkpt lat="46.49392" lon="4.77864">
        <ele>428.89</ele>
        <time>2016-06-06T08:29:49Z</time>
      </trkpt>
      <trkpt lat="46.49392" lon="4.77863">
        <ele>430.33</ele>
        <time>2016-06-06T08:30:26Z</time>
      </trkpt>
      <trkpt lat="46.49394" lon="4.7786">
        <ele>428.4</ele>
        <time>2016-06-06T08:31:09Z</time>
      </trkpt>
      <trkpt lat="46.49392" lon="4.77862">
        <ele>427.92</ele>
        <time>2016-06-06T08:31:44Z</time>
      </trkpt>
      <trkpt lat="46.49398" lon="4.77855">
        <ele>424.56</ele>
        <time>2016-06-06T08:32:01Z</time>
      </trkpt>
      <trkpt lat="46.49423" lon="4.77829">
        <ele>426</ele>
        <time>2016-06-06T08:32:18Z</time>
      </trkpt>
      <trkpt lat="46.4944" lon="4.77797">
        <ele>425.04</ele>
        <time>2016-06-06T08:32:32Z</time>
      </trkpt>
      <trkpt lat="46.49462" lon="4.7775">
        <ele>422.64</ele>
        <time>2016-06-06T08:32:50Z</time>
      </trkpt>
      <trkpt lat="46.49476" lon="4.77714">
        <ele>422.64</ele>
        <time>2016-06-06T08:33:03Z</time>
      </trkpt>
      <trkpt lat="46.49496" lon="4.77657">
        <ele>424.08</ele>
        <time>2016-06-06T08:33:20Z</time>
      </trkpt>
      <trkpt lat="46.49505" lon="4.77603">
        <ele>425.04</ele>
        <time>2016-06-06T08:33:35Z</time>
      </trkpt>
      <trkpt lat="46.49494" lon="4.7754">
        <ele>427.44</ele>
        <time>2016-06-06T08:33:55Z</time>
      </trkpt>
      <trkpt lat="46.49478" lon="4.77514">
        <ele>429.37</ele>
        <time>2016-06-06T08:34:07Z</time>
      </trkpt>
      <trkpt lat="46.49475" lon="4.77507">
        <ele>430.81</ele>
        <time>2016-06-06T08:34:12Z</time>
      </trkpt>
      <trkpt lat="46.49482" lon="4.77522">
        <ele>430.81</ele>
        <time>2016-06-06T08:34:24Z</time>
      </trkpt>
      <trkpt lat="46.49489" lon="4.77529">
        <ele>429.85</ele>
        <time>2016-06-06T08:34:28Z</time>
      </trkpt>
      <trkpt lat="46.4949" lon="4.7753">
        <ele>429.37</ele>
        <time>2016-06-06T08:34:29Z</time>
      </trkpt>
      <trkpt lat="46.49497" lon="4.77542">
        <ele>428.4</ele>
        <time>2016-06-06T08:34:37Z</time>
      </trkpt>
      <trkpt lat="46.495" lon="4.77558">
        <ele>428.4</ele>
        <time>2016-06-06T08:34:48Z</time>
      </trkpt>
      <trkpt lat="46.49502" lon="4.77559">
        <ele>427.92</ele>
        <time>2016-06-06T08:34:59Z</time>
      </trkpt>
      <trkpt lat="46.49501" lon="4.77555">
        <ele>427.92</ele>
        <time>2016-06-06T08:35:14Z</time>
      </trkpt>
      <trkpt lat="46.49501" lon="4.77554">
        <ele>428.4</ele>
        <time>2016-06-06T08:35:15Z</time>
      </trkpt>
      <trkpt lat="46.49492" lon="4.77535">
        <ele>430.33</ele>
        <time>2016-06-06T08:35:27Z</time>
      </trkpt>
      <trkpt lat="46.49483" lon="4.77522">
        <ele>431.77</ele>
        <time>2016-06-06T08:35:34Z</time>
      </trkpt>
      <trkpt lat="46.49475" lon="4.77507">
        <ele>432.25</ele>
        <time>2016-06-06T08:35:41Z</time>
      </trkpt>
      <trkpt lat="46.4946" lon="4.7748">
        <ele>442.82</ele>
        <time>2016-06-06T08:35:55Z</time>
      </trkpt>
      <trkpt lat="46.49454" lon="4.77459">
        <ele>454.36</ele>
        <time>2016-06-06T08:36:08Z</time>
      </trkpt>
      <trkpt lat="46.49454" lon="4.77454">
        <ele>456.28</ele>
        <time>2016-06-06T08:36:11Z</time>
      </trkpt>
      <trkpt lat="46.49456" lon="4.77427">
        <ele>460.13</ele>
        <time>2016-06-06T08:36:24Z</time>
      </trkpt>
      <trkpt lat="46.49457" lon="4.77419">
        <ele>461.09</ele>
        <time>2016-06-06T08:36:27Z</time>
      </trkpt>
      <trkpt lat="46.49452" lon="4.77389">
        <ele>470.7</ele>
        <time>2016-06-06T08:36:41Z</time>
      </trkpt>
      <trkpt lat="46.49446" lon="4.77367">
        <ele>480.32</ele>
        <time>2016-06-06T08:36:53Z</time>
      </trkpt>
      <trkpt lat="46.49425" lon="4.77341">
        <ele>484.16</ele>
        <time>2016-06-06T08:37:08Z</time>
      </trkpt>
      <trkpt lat="46.49397" lon="4.77292">
        <ele>469.26</ele>
        <time>2016-06-06T08:37:26Z</time>
      </trkpt>
      <trkpt lat="46.49378" lon="4.77258">
        <ele>461.09</ele>
        <time>2016-06-06T08:37:42Z</time>
      </trkpt>
      <trkpt lat="46.4936" lon="4.77224">
        <ele>456.76</ele>
        <time>2016-06-06T08:37:59Z</time>
      </trkpt>
      <trkpt lat="46.49354" lon="4.77212">
        <ele>455.8</ele>
        <time>2016-06-06T08:38:05Z</time>
      </trkpt>
      <trkpt lat="46.49349" lon="4.77197">
        <ele>454.84</ele>
        <time>2016-06-06T08:38:12Z</time>
      </trkpt>
      <trkpt lat="46.49344" lon="4.77182">
        <ele>455.8</ele>
        <time>2016-06-06T08:38:20Z</time>
      </trkpt>
      <trkpt lat="46.4934" lon="4.77157">
        <ele>458.21</ele>
        <time>2016-06-06T08:38:34Z</time>
      </trkpt>
      <trkpt lat="46.4934" lon="4.77156">
        <ele>458.69</ele>
        <time>2016-06-06T08:38:35Z</time>
      </trkpt>
      <trkpt lat="46.49334" lon="4.7713">
        <ele>464.93</ele>
        <time>2016-06-06T08:38:49Z</time>
      </trkpt>
      <trkpt lat="46.49332" lon="4.77126">
        <ele>465.9</ele>
        <time>2016-06-06T08:38:51Z</time>
      </trkpt>
      <trkpt lat="46.49326" lon="4.77107">
        <ele>470.7</ele>
        <time>2016-06-06T08:39:00Z</time>
      </trkpt>
      <trkpt lat="46.49326" lon="4.77099">
        <ele>470.22</ele>
        <time>2016-06-06T08:39:03Z</time>
      </trkpt>
      <trkpt lat="46.49326" lon="4.77085">
        <ele>470.22</ele>
        <time>2016-06-06T08:39:13Z</time>
      </trkpt>
      <trkpt lat="46.49356" lon="4.77094">
        <ele>471.66</ele>
        <time>2016-06-06T08:39:28Z</time>
      </trkpt>
      <trkpt lat="46.4939" lon="4.77103">
        <ele>473.11</ele>
        <time>2016-06-06T08:39:42Z</time>
      </trkpt>
      <trkpt lat="46.49426" lon="4.77116">
        <ele>475.51</ele>
        <time>2016-06-06T08:39:57Z</time>
      </trkpt>
      <trkpt lat="46.4947" lon="4.77135">
        <ele>475.51</ele>
        <time>2016-06-06T08:40:14Z</time>
      </trkpt>
      <trkpt lat="46.49523" lon="4.77168">
        <ele>476.95</ele>
        <time>2016-06-06T08:40:32Z</time>
      </trkpt>
      <trkpt lat="46.49581" lon="4.77174">
        <ele>478.39</ele>
        <time>2016-06-06T08:40:49Z</time>
      </trkpt>
      <trkpt lat="46.49632" lon="4.77189">
        <ele>478.87</ele>
        <time>2016-06-06T08:41:04Z</time>
      </trkpt>
      <trkpt lat="46.49676" lon="4.77225">
        <ele>478.87</ele>
        <time>2016-06-06T08:41:19Z</time>
      </trkpt>
      <trkpt lat="46.49719" lon="4.77266">
        <ele>480.8</ele>
        <time>2016-06-06T08:41:35Z</time>
      </trkpt>
      <trkpt lat="46.49763" lon="4.77308">
        <ele>478.39</ele>
        <time>2016-06-06T08:41:50Z</time>
      </trkpt>
      <trkpt lat="46.49795" lon="4.77363">
        <ele>474.55</ele>
        <time>2016-06-06T08:42:03Z</time>
      </trkpt>
      <trkpt lat="46.49797" lon="4.77368">
        <ele>474.07</ele>
        <time>2016-06-06T08:42:04Z</time>
      </trkpt>
      <trkpt lat="46.49804" lon="4.77378">
        <ele>474.07</ele>
        <time>2016-06-06T08:42:06Z</time>
      </trkpt>
      <trkpt lat="46.49807" lon="4.77381">
        <ele>474.07</ele>
        <time>2016-06-06T08:42:07Z</time>
      </trkpt>
      <trkpt lat="46.49841" lon="4.77431">
        <ele>472.14</ele>
        <time>2016-06-06T08:42:20Z</time>
      </trkpt>
      <trkpt lat="46.49884" lon="4.77478">
        <ele>474.07</ele>
        <time>2016-06-06T08:42:36Z</time>
      </trkpt>
      <trkpt lat="46.49925" lon="4.77513">
        <ele>475.03</ele>
        <time>2016-06-06T08:42:51Z</time>
      </trkpt>
      <trkpt lat="46.49981" lon="4.77553">
        <ele>476.47</ele>
        <time>2016-06-06T08:43:09Z</time>
      </trkpt>
      <trkpt lat="46.50032" lon="4.77578">
        <ele>476.47</ele>
        <time>2016-06-06T08:43:24Z</time>
      </trkpt>
      <trkpt lat="46.5007" lon="4.77592">
        <ele>476.47</ele>
        <time>2016-06-06T08:43:35Z</time>
      </trkpt>
      <trkpt lat="46.50107" lon="4.77602">
        <ele>477.43</ele>
        <time>2016-06-06T08:43:46Z</time>
      </trkpt>
      <trkpt lat="46.50111" lon="4.77604">
        <ele>477.43</ele>
        <time>2016-06-06T08:43:47Z</time>
      </trkpt>
      <trkpt lat="46.50124" lon="4.77613">
        <ele>476.47</ele>
        <time>2016-06-06T08:43:50Z</time>
      </trkpt>
      <trkpt lat="46.50134" lon="4.77621">
        <ele>475.99</ele>
        <time>2016-06-06T08:43:52Z</time>
      </trkpt>
      <trkpt lat="46.50139" lon="4.77624">
        <ele>475.99</ele>
        <time>2016-06-06T08:43:53Z</time>
      </trkpt>
      <trkpt lat="46.50149" lon="4.7763">
        <ele>475.51</ele>
        <time>2016-06-06T08:43:55Z</time>
      </trkpt>
      <trkpt lat="46.50155" lon="4.77632">
        <ele>475.03</ele>
        <time>2016-06-06T08:43:56Z</time>
      </trkpt>
      <trkpt lat="46.50166" lon="4.77634">
        <ele>474.55</ele>
        <time>2016-06-06T08:43:58Z</time>
      </trkpt>
      <trkpt lat="46.50178" lon="4.77634">
        <ele>474.07</ele>
        <time>2016-06-06T08:44:00Z</time>
      </trkpt>
      <trkpt lat="46.50183" lon="4.77634">
        <ele>474.07</ele>
        <time>2016-06-06T08:44:01Z</time>
      </trkpt>
      <trkpt lat="46.50193" lon="4.77636">
        <ele>473.59</ele>
        <time>2016-06-06T08:44:03Z</time>
      </trkpt>
      <trkpt lat="46.50198" lon="4.77638">
        <ele>473.59</ele>
        <time>2016-06-06T08:44:04Z</time>
      </trkpt>
      <trkpt lat="46.50202" lon="4.77641">
        <ele>473.59</ele>
        <time>2016-06-06T08:44:05Z</time>
      </trkpt>
      <trkpt lat="46.50206" lon="4.77645">
        <ele>473.11</ele>
        <time>2016-06-06T08:44:06Z</time>
      </trkpt>
      <trkpt lat="46.5021" lon="4.77649">
        <ele>473.11</ele>
        <time>2016-06-06T08:44:07Z</time>
      </trkpt>
      <trkpt lat="46.50214" lon="4.77653">
        <ele>473.11</ele>
        <time>2016-06-06T08:44:08Z</time>
      </trkpt>
      <trkpt lat="46.50218" lon="4.77657">
        <ele>472.63</ele>
        <time>2016-06-06T08:44:09Z</time>
      </trkpt>
      <trkpt lat="46.50223" lon="4.77659">
        <ele>472.14</ele>
        <time>2016-06-06T08:44:10Z</time>
      </trkpt>
      <trkpt lat="46.50234" lon="4.77663">
        <ele>471.66</ele>
        <time>2016-06-06T08:44:12Z</time>
      </trkpt>
      <trkpt lat="46.5024" lon="4.77665">
        <ele>471.66</ele>
        <time>2016-06-06T08:44:13Z</time>
      </trkpt>
      <trkpt lat="46.50258" lon="4.77667">
        <ele>471.66</ele>
        <time>2016-06-06T08:44:16Z</time>
      </trkpt>
      <trkpt lat="46.50265" lon="4.77667">
        <ele>471.66</ele>
        <time>2016-06-06T08:44:17Z</time>
      </trkpt>
      <trkpt lat="46.50337" lon="4.77668">
        <ele>471.66</ele>
        <time>2016-06-06T08:44:28Z</time>
      </trkpt>
      <trkpt lat="46.50353" lon="4.77668">
        <ele>471.66</ele>
        <time>2016-06-06T08:44:31Z</time>
      </trkpt>
      <trkpt lat="46.50358" lon="4.77669">
        <ele>471.66</ele>
        <time>2016-06-06T08:44:32Z</time>
      </trkpt>
      <trkpt lat="46.50363" lon="4.77671">
        <ele>471.66</ele>
        <time>2016-06-06T08:44:33Z</time>
      </trkpt>
      <trkpt lat="46.50368" lon="4.77674">
        <ele>471.18</ele>
        <time>2016-06-06T08:44:34Z</time>
      </trkpt>
      <trkpt lat="46.50372" lon="4.77677">
        <ele>471.18</ele>
        <time>2016-06-06T08:44:35Z</time>
      </trkpt>
      <trkpt lat="46.50414" lon="4.77693">
        <ele>466.38</ele>
        <time>2016-06-06T08:44:47Z</time>
      </trkpt>
      <trkpt lat="46.50454" lon="4.77683">
        <ele>465.9</ele>
        <time>2016-06-06T08:45:01Z</time>
      </trkpt>
      <trkpt lat="46.50489" lon="4.77683">
        <ele>465.9</ele>
        <time>2016-06-06T08:45:15Z</time>
      </trkpt>
      <trkpt lat="46.50492" lon="4.77682">
        <ele>465.9</ele>
        <time>2016-06-06T08:45:16Z</time>
      </trkpt>
      <trkpt lat="46.50495" lon="4.77683">
        <ele>465.9</ele>
        <time>2016-06-06T08:45:17Z</time>
      </trkpt>
      <trkpt lat="46.50497" lon="4.77683">
        <ele>465.9</ele>
        <time>2016-06-06T08:45:18Z</time>
      </trkpt>
      <trkpt lat="46.505" lon="4.77684">
        <ele>465.9</ele>
        <time>2016-06-06T08:45:19Z</time>
      </trkpt>
      <trkpt lat="46.50539" lon="4.77699">
        <ele>467.34</ele>
        <time>2016-06-06T08:45:36Z</time>
      </trkpt>
      <trkpt lat="46.5058" lon="4.77721">
        <ele>470.22</ele>
        <time>2016-06-06T08:45:54Z</time>
      </trkpt>
      <trkpt lat="46.50619" lon="4.77742">
        <ele>474.07</ele>
        <time>2016-06-06T08:46:11Z</time>
      </trkpt>
      <trkpt lat="46.50643" lon="4.77759">
        <ele>474.07</ele>
        <time>2016-06-06T08:46:22Z</time>
      </trkpt>
      <trkpt lat="46.50645" lon="4.7776">
        <ele>474.55</ele>
        <time>2016-06-06T08:46:23Z</time>
      </trkpt>
      <trkpt lat="46.50656" lon="4.77769">
        <ele>474.07</ele>
        <time>2016-06-06T08:46:28Z</time>
      </trkpt>
      <trkpt lat="46.50658" lon="4.7777">
        <ele>473.59</ele>
        <time>2016-06-06T08:46:29Z</time>
      </trkpt>
      <trkpt lat="46.50692" lon="4.77794">
        <ele>472.14</ele>
        <time>2016-06-06T08:46:43Z</time>
      </trkpt>
      <trkpt lat="46.50735" lon="4.77818">
        <ele>471.18</ele>
        <time>2016-06-06T08:46:58Z</time>
      </trkpt>
      <trkpt lat="46.50774" lon="4.77822">
        <ele>471.18</ele>
        <time>2016-06-06T08:47:12Z</time>
      </trkpt>
      <trkpt lat="46.50789" lon="4.77814">
        <ele>470.7</ele>
        <time>2016-06-06T08:47:25Z</time>
      </trkpt>
      <trkpt lat="46.50798" lon="4.77808">
        <ele>471.66</ele>
        <time>2016-06-06T08:47:40Z</time>
      </trkpt>
      <trkpt lat="46.50801" lon="4.77807">
        <ele>472.14</ele>
        <time>2016-06-06T08:47:44Z</time>
      </trkpt>
      <trkpt lat="46.50803" lon="4.77806">
        <ele>472.14</ele>
        <time>2016-06-06T08:47:45Z</time>
      </trkpt>
      <trkpt lat="46.50804" lon="4.77805">
        <ele>472.14</ele>
        <time>2016-06-06T08:47:46Z</time>
      </trkpt>
      <trkpt lat="46.50805" lon="4.77805">
        <ele>472.63</ele>
        <time>2016-06-06T08:47:47Z</time>
      </trkpt>
      <trkpt lat="46.50807" lon="4.77804">
        <ele>473.11</ele>
        <time>2016-06-06T08:47:48Z</time>
      </trkpt>
      <trkpt lat="46.50808" lon="4.77803">
        <ele>473.11</ele>
        <time>2016-06-06T08:47:49Z</time>
      </trkpt>
      <trkpt lat="46.5081" lon="4.77802">
        <ele>473.11</ele>
        <time>2016-06-06T08:47:50Z</time>
      </trkpt>
      <trkpt lat="46.50828" lon="4.77796">
        <ele>475.03</ele>
        <time>2016-06-06T08:48:02Z</time>
      </trkpt>
      <trkpt lat="46.50852" lon="4.77791">
        <ele>478.39</ele>
        <time>2016-06-06T08:48:16Z</time>
      </trkpt>
      <trkpt lat="46.50876" lon="4.7779">
        <ele>480.8</ele>
        <time>2016-06-06T08:48:30Z</time>
      </trkpt>
      <trkpt lat="46.50902" lon="4.77789">
        <ele>481.28</ele>
        <time>2016-06-06T08:48:45Z</time>
      </trkpt>
      <trkpt lat="46.50925" lon="4.77789">
        <ele>482.72</ele>
        <time>2016-06-06T08:48:56Z</time>
      </trkpt>
      <trkpt lat="46.50927" lon="4.77788">
        <ele>482.72</ele>
        <time>2016-06-06T08:48:57Z</time>
      </trkpt>
      <trkpt lat="46.50928" lon="4.77788">
        <ele>482.72</ele>
        <time>2016-06-06T08:48:58Z</time>
      </trkpt>
      <trkpt lat="46.50931" lon="4.77788">
        <ele>482.72</ele>
        <time>2016-06-06T08:48:59Z</time>
      </trkpt>
      <trkpt lat="46.50933" lon="4.77788">
        <ele>482.72</ele>
        <time>2016-06-06T08:49:00Z</time>
      </trkpt>
      <trkpt lat="46.50959" lon="4.77794">
        <ele>481.76</ele>
        <time>2016-06-06T08:49:13Z</time>
      </trkpt>
      <trkpt lat="46.50978" lon="4.77798">
        <ele>481.76</ele>
        <time>2016-06-06T08:49:23Z</time>
      </trkpt>
      <trkpt lat="46.51003" lon="4.77805">
        <ele>485.12</ele>
        <time>2016-06-06T08:49:36Z</time>
      </trkpt>
      <trkpt lat="46.51005" lon="4.77806">
        <ele>485.6</ele>
        <time>2016-06-06T08:49:37Z</time>
      </trkpt>
      <trkpt lat="46.51008" lon="4.77806">
        <ele>486.08</ele>
        <time>2016-06-06T08:49:38Z</time>
      </trkpt>
      <trkpt lat="46.5101" lon="4.77807">
        <ele>486.56</ele>
        <time>2016-06-06T08:49:39Z</time>
      </trkpt>
      <trkpt lat="46.51013" lon="4.77809">
        <ele>487.05</ele>
        <time>2016-06-06T08:49:40Z</time>
      </trkpt>
      <trkpt lat="46.51015" lon="4.77809">
        <ele>487.53</ele>
        <time>2016-06-06T08:49:41Z</time>
      </trkpt>
      <trkpt lat="46.51017" lon="4.7781">
        <ele>488.01</ele>
        <time>2016-06-06T08:49:42Z</time>
      </trkpt>
      <trkpt lat="46.51019" lon="4.7781">
        <ele>488.01</ele>
        <time>2016-06-06T08:49:43Z</time>
      </trkpt>
      <trkpt lat="46.51021" lon="4.77811">
        <ele>488.01</ele>
        <time>2016-06-06T08:49:44Z</time>
      </trkpt>
      <trkpt lat="46.51039" lon="4.77818">
        <ele>493.29</ele>
        <time>2016-06-06T08:49:54Z</time>
      </trkpt>
      <trkpt lat="46.51041" lon="4.77819">
        <ele>493.77</ele>
        <time>2016-06-06T08:49:55Z</time>
      </trkpt>
      <trkpt lat="46.51043" lon="4.77819">
        <ele>494.26</ele>
        <time>2016-06-06T08:49:56Z</time>
      </trkpt>
      <trkpt lat="46.51045" lon="4.7782">
        <ele>494.74</ele>
        <time>2016-06-06T08:49:57Z</time>
      </trkpt>
      <trkpt lat="46.51048" lon="4.77821">
        <ele>495.22</ele>
        <time>2016-06-06T08:49:58Z</time>
      </trkpt>
      <trkpt lat="46.51049" lon="4.77822">
        <ele>495.7</ele>
        <time>2016-06-06T08:49:59Z</time>
      </trkpt>
      <trkpt lat="46.51051" lon="4.77823">
        <ele>496.18</ele>
        <time>2016-06-06T08:50:00Z</time>
      </trkpt>
      <trkpt lat="46.51054" lon="4.77824">
        <ele>496.18</ele>
        <time>2016-06-06T08:50:01Z</time>
      </trkpt>
      <trkpt lat="46.51056" lon="4.77825">
        <ele>496.66</ele>
        <time>2016-06-06T08:50:02Z</time>
      </trkpt>
      <trkpt lat="46.51058" lon="4.77825">
        <ele>496.66</ele>
        <time>2016-06-06T08:50:03Z</time>
      </trkpt>
      <trkpt lat="46.51061" lon="4.77826">
        <ele>497.14</ele>
        <time>2016-06-06T08:50:04Z</time>
      </trkpt>
      <trkpt lat="46.51063" lon="4.77826">
        <ele>497.62</ele>
        <time>2016-06-06T08:50:05Z</time>
      </trkpt>
      <trkpt lat="46.51081" lon="4.77829">
        <ele>500.5</ele>
        <time>2016-06-06T08:50:13Z</time>
      </trkpt>
      <trkpt lat="46.51112" lon="4.77836">
        <ele>507.71</ele>
        <time>2016-06-06T08:50:27Z</time>
      </trkpt>
      <trkpt lat="46.51133" lon="4.77844">
        <ele>510.12</ele>
        <time>2016-06-06T08:50:37Z</time>
      </trkpt>
      <trkpt lat="46.51135" lon="4.77845">
        <ele>510.12</ele>
        <time>2016-06-06T08:50:38Z</time>
      </trkpt>
      <trkpt lat="46.51161" lon="4.77856">
        <ele>510.12</ele>
        <time>2016-06-06T08:50:50Z</time>
      </trkpt>
      <trkpt lat="46.51191" lon="4.77866">
        <ele>510.12</ele>
        <time>2016-06-06T08:51:03Z</time>
      </trkpt>
      <trkpt lat="46.51219" lon="4.7788">
        <ele>508.67</ele>
        <time>2016-06-06T08:51:17Z</time>
      </trkpt>
      <trkpt lat="46.51249" lon="4.7789">
        <ele>506.75</ele>
        <time>2016-06-06T08:51:30Z</time>
      </trkpt>
      <trkpt lat="46.51279" lon="4.77899">
        <ele>502.91</ele>
        <time>2016-06-06T08:51:42Z</time>
      </trkpt>
      <trkpt lat="46.51305" lon="4.77907">
        <ele>501.95</ele>
        <time>2016-06-06T08:51:53Z</time>
      </trkpt>
      <trkpt lat="46.51312" lon="4.77909">
        <ele>501.95</ele>
        <time>2016-06-06T08:51:56Z</time>
      </trkpt>
      <trkpt lat="46.51314" lon="4.7791">
        <ele>502.43</ele>
        <time>2016-06-06T08:51:57Z</time>
      </trkpt>
      <trkpt lat="46.51316" lon="4.77911">
        <ele>502.43</ele>
        <time>2016-06-06T08:51:58Z</time>
      </trkpt>
      <trkpt lat="46.51321" lon="4.77914">
        <ele>501.46</ele>
        <time>2016-06-06T08:52:01Z</time>
      </trkpt>
      <trkpt lat="46.51354" lon="4.77932">
        <ele>504.35</ele>
        <time>2016-06-06T08:52:12Z</time>
      </trkpt>
      <trkpt lat="46.51428" lon="4.77977">
        <ele>501.46</ele>
        <time>2016-06-06T08:52:25Z</time>
      </trkpt>
      <trkpt lat="46.51441" lon="4.77987">
        <ele>500.02</ele>
        <time>2016-06-06T08:52:27Z</time>
      </trkpt>
      <trkpt lat="46.51476" lon="4.7801">
        <ele>492.33</ele>
        <time>2016-06-06T08:52:35Z</time>
      </trkpt>
      <trkpt lat="46.51509" lon="4.78018">
        <ele>485.12</ele>
        <time>2016-06-06T08:52:47Z</time>
      </trkpt>
      <trkpt lat="46.51528" lon="4.7802">
        <ele>486.56</ele>
        <time>2016-06-06T08:53:00Z</time>
      </trkpt>
      <trkpt lat="46.51547" lon="4.78029">
        <ele>486.08</ele>
        <time>2016-06-06T08:53:14Z</time>
      </trkpt>
      <trkpt lat="46.51571" lon="4.78046">
        <ele>487.05</ele>
        <time>2016-06-06T08:53:26Z</time>
      </trkpt>
      <trkpt lat="46.51599" lon="4.78062">
        <ele>488.01</ele>
        <time>2016-06-06T08:53:38Z</time>
      </trkpt>
      <trkpt lat="46.51628" lon="4.78074">
        <ele>485.12</ele>
        <time>2016-06-06T08:53:51Z</time>
      </trkpt>
      <trkpt lat="46.51661" lon="4.78087">
        <ele>484.64</ele>
        <time>2016-06-06T08:54:05Z</time>
      </trkpt>
      <trkpt lat="46.51682" lon="4.78098">
        <ele>485.6</ele>
        <time>2016-06-06T08:54:16Z</time>
      </trkpt>
      <trkpt lat="46.51713" lon="4.78111">
        <ele>490.89</ele>
        <time>2016-06-06T08:54:31Z</time>
      </trkpt>
      <trkpt lat="46.51743" lon="4.78128">
        <ele>495.22</ele>
        <time>2016-06-06T08:54:46Z</time>
      </trkpt>
      <trkpt lat="46.51768" lon="4.78155">
        <ele>494.74</ele>
        <time>2016-06-06T08:54:58Z</time>
      </trkpt>
      <trkpt lat="46.51789" lon="4.78181">
        <ele>492.33</ele>
        <time>2016-06-06T08:55:09Z</time>
      </trkpt>
      <trkpt lat="46.5181" lon="4.78212">
        <ele>492.81</ele>
        <time>2016-06-06T08:55:22Z</time>
      </trkpt>
      <trkpt lat="46.51836" lon="4.78236">
        <ele>492.81</ele>
        <time>2016-06-06T08:55:34Z</time>
      </trkpt>
      <trkpt lat="46.51867" lon="4.78257">
        <ele>492.33</ele>
        <time>2016-06-06T08:55:46Z</time>
      </trkpt>
      <trkpt lat="46.51896" lon="4.78279">
        <ele>493.77</ele>
        <time>2016-06-06T08:55:57Z</time>
      </trkpt>
      <trkpt lat="46.51927" lon="4.78308">
        <ele>496.66</ele>
        <time>2016-06-06T08:56:08Z</time>
      </trkpt>
      <trkpt lat="46.51954" lon="4.78333">
        <ele>496.18</ele>
        <time>2016-06-06T08:56:20Z</time>
      </trkpt>
      <trkpt lat="46.51979" lon="4.78355">
        <ele>496.18</ele>
        <time>2016-06-06T08:56:30Z</time>
      </trkpt>
      <trkpt lat="46.52008" lon="4.78388">
        <ele>495.22</ele>
        <time>2016-06-06T08:56:40Z</time>
      </trkpt>
      <trkpt lat="46.52037" lon="4.78433">
        <ele>489.45</ele>
        <time>2016-06-06T08:56:51Z</time>
      </trkpt>
      <trkpt lat="46.5207" lon="4.78485">
        <ele>477.91</ele>
        <time>2016-06-06T08:57:03Z</time>
      </trkpt>
      <trkpt lat="46.52105" lon="4.78519">
        <ele>476.47</ele>
        <time>2016-06-06T08:57:14Z</time>
      </trkpt>
      <trkpt lat="46.52145" lon="4.78547">
        <ele>477.91</ele>
        <time>2016-06-06T08:57:24Z</time>
      </trkpt>
      <trkpt lat="46.52195" lon="4.78573">
        <ele>475.99</ele>
        <time>2016-06-06T08:57:35Z</time>
      </trkpt>
      <trkpt lat="46.5224" lon="4.78604">
        <ele>472.14</ele>
        <time>2016-06-06T08:57:46Z</time>
      </trkpt>
      <trkpt lat="46.52255" lon="4.78619">
        <ele>471.18</ele>
        <time>2016-06-06T08:57:50Z</time>
      </trkpt>
      <trkpt lat="46.52281" lon="4.7864">
        <ele>468.78</ele>
        <time>2016-06-06T08:57:55Z</time>
      </trkpt>
      <trkpt lat="46.52287" lon="4.78644">
        <ele>467.82</ele>
        <time>2016-06-06T08:57:56Z</time>
      </trkpt>
      <trkpt lat="46.52323" lon="4.78668">
        <ele>459.17</ele>
        <time>2016-06-06T08:58:02Z</time>
      </trkpt>
      <trkpt lat="46.52329" lon="4.78673">
        <ele>457.72</ele>
        <time>2016-06-06T08:58:03Z</time>
      </trkpt>
      <trkpt lat="46.52403" lon="4.78726">
        <ele>447.63</ele>
        <time>2016-06-06T08:58:16Z</time>
      </trkpt>
      <trkpt lat="46.52442" lon="4.7875">
        <ele>443.31</ele>
        <time>2016-06-06T08:58:23Z</time>
      </trkpt>
      <trkpt lat="46.52508" lon="4.78797">
        <ele>436.58</ele>
        <time>2016-06-06T08:58:34Z</time>
      </trkpt>
      <trkpt lat="46.52513" lon="4.78802">
        <ele>435.61</ele>
        <time>2016-06-06T08:58:35Z</time>
      </trkpt>
      <trkpt lat="46.52526" lon="4.7882">
        <ele>434.17</ele>
        <time>2016-06-06T08:58:38Z</time>
      </trkpt>
      <trkpt lat="46.52529" lon="4.78825">
        <ele>434.17</ele>
        <time>2016-06-06T08:58:39Z</time>
      </trkpt>
      <trkpt lat="46.5254" lon="4.78839">
        <ele>433.69</ele>
        <time>2016-06-06T08:58:42Z</time>
      </trkpt>
      <trkpt lat="46.52552" lon="4.7885">
        <ele>433.21</ele>
        <time>2016-06-06T08:58:45Z</time>
      </trkpt>
      <trkpt lat="46.52615" lon="4.78888">
        <ele>430.81</ele>
        <time>2016-06-06T08:58:58Z</time>
      </trkpt>
      <trkpt lat="46.52684" lon="4.78919">
        <ele>428.4</ele>
        <time>2016-06-06T08:59:15Z</time>
      </trkpt>
      <trkpt lat="46.52713" lon="4.78924">
        <ele>427.92</ele>
        <time>2016-06-06T08:59:26Z</time>
      </trkpt>
      <trkpt lat="46.52753" lon="4.7893">
        <ele>426.96</ele>
        <time>2016-06-06T08:59:40Z</time>
      </trkpt>
      <trkpt lat="46.52782" lon="4.7894">
        <ele>427.44</ele>
        <time>2016-06-06T08:59:53Z</time>
      </trkpt>
      <trkpt lat="46.52813" lon="4.78942">
        <ele>426.48</ele>
        <time>2016-06-06T09:00:07Z</time>
      </trkpt>
      <trkpt lat="46.52848" lon="4.78937">
        <ele>428.4</ele>
        <time>2016-06-06T09:00:22Z</time>
      </trkpt>
      <trkpt lat="46.52879" lon="4.78933">
        <ele>432.73</ele>
        <time>2016-06-06T09:00:35Z</time>
      </trkpt>
      <trkpt lat="46.52918" lon="4.78937">
        <ele>435.61</ele>
        <time>2016-06-06T09:00:51Z</time>
      </trkpt>
      <trkpt lat="46.52958" lon="4.78943">
        <ele>440.42</ele>
        <time>2016-06-06T09:01:10Z</time>
      </trkpt>
      <trkpt lat="46.52986" lon="4.78951">
        <ele>442.82</ele>
        <time>2016-06-06T09:01:23Z</time>
      </trkpt>
      <trkpt lat="46.53035" lon="4.78967">
        <ele>440.9</ele>
        <time>2016-06-06T09:01:37Z</time>
      </trkpt>
      <trkpt lat="46.53069" lon="4.7898">
        <ele>440.9</ele>
        <time>2016-06-06T09:01:49Z</time>
      </trkpt>
      <trkpt lat="46.53112" lon="4.78995">
        <ele>442.34</ele>
        <time>2016-06-06T09:02:05Z</time>
      </trkpt>
      <trkpt lat="46.53149" lon="4.79016">
        <ele>442.82</ele>
        <time>2016-06-06T09:02:15Z</time>
      </trkpt>
      <trkpt lat="46.53155" lon="4.79019">
        <ele>442.34</ele>
        <time>2016-06-06T09:02:16Z</time>
      </trkpt>
      <trkpt lat="46.53182" lon="4.79035">
        <ele>439.94</ele>
        <time>2016-06-06T09:02:20Z</time>
      </trkpt>
      <trkpt lat="46.53188" lon="4.79041">
        <ele>439.46</ele>
        <time>2016-06-06T09:02:21Z</time>
      </trkpt>
      <trkpt lat="46.53195" lon="4.79046">
        <ele>438.5</ele>
        <time>2016-06-06T09:02:22Z</time>
      </trkpt>
      <trkpt lat="46.53202" lon="4.7905">
        <ele>438.02</ele>
        <time>2016-06-06T09:02:23Z</time>
      </trkpt>
      <trkpt lat="46.5321" lon="4.79053">
        <ele>437.54</ele>
        <time>2016-06-06T09:02:24Z</time>
      </trkpt>
      <trkpt lat="46.53219" lon="4.79054">
        <ele>437.54</ele>
        <time>2016-06-06T09:02:25Z</time>
      </trkpt>
      <trkpt lat="46.53227" lon="4.79055">
        <ele>437.06</ele>
        <time>2016-06-06T09:02:26Z</time>
      </trkpt>
      <trkpt lat="46.53235" lon="4.79054">
        <ele>436.58</ele>
        <time>2016-06-06T09:02:27Z</time>
      </trkpt>
      <trkpt lat="46.53266" lon="4.79051">
        <ele>435.61</ele>
        <time>2016-06-06T09:02:31Z</time>
      </trkpt>
      <trkpt lat="46.53273" lon="4.79052">
        <ele>434.65</ele>
        <time>2016-06-06T09:02:32Z</time>
      </trkpt>
      <trkpt lat="46.53281" lon="4.79055">
        <ele>434.17</ele>
        <time>2016-06-06T09:02:33Z</time>
      </trkpt>
      <trkpt lat="46.53288" lon="4.7906">
        <ele>433.69</ele>
        <time>2016-06-06T09:02:34Z</time>
      </trkpt>
      <trkpt lat="46.53295" lon="4.79066">
        <ele>433.21</ele>
        <time>2016-06-06T09:02:35Z</time>
      </trkpt>
      <trkpt lat="46.53302" lon="4.79072">
        <ele>432.73</ele>
        <time>2016-06-06T09:02:36Z</time>
      </trkpt>
      <trkpt lat="46.5335" lon="4.79101">
        <ele>428.89</ele>
        <time>2016-06-06T09:02:43Z</time>
      </trkpt>
      <trkpt lat="46.53358" lon="4.79105">
        <ele>428.4</ele>
        <time>2016-06-06T09:02:46Z</time>
      </trkpt>
      <trkpt lat="46.53359" lon="4.79104">
        <ele>427.92</ele>
        <time>2016-06-06T09:02:47Z</time>
      </trkpt>
      <trkpt lat="46.53354" lon="4.79101">
        <ele>427.92</ele>
        <time>2016-06-06T09:02:50Z</time>
      </trkpt>
      <trkpt lat="46.53336" lon="4.7908">
        <ele>419.75</ele>
        <time>2016-06-06T09:03:00Z</time>
      </trkpt>
      <trkpt lat="46.53341" lon="4.79062">
        <ele>417.83</ele>
        <time>2016-06-06T09:03:05Z</time>
      </trkpt>
      <trkpt lat="46.53357" lon="4.79013">
        <ele>417.35</ele>
        <time>2016-06-06T09:03:18Z</time>
      </trkpt>
      <trkpt lat="46.53369" lon="4.78959">
        <ele>418.31</ele>
        <time>2016-06-06T09:03:30Z</time>
      </trkpt>
      <trkpt lat="46.53376" lon="4.78946">
        <ele>417.83</ele>
        <time>2016-06-06T09:03:34Z</time>
      </trkpt>
      <trkpt lat="46.53385" lon="4.78937">
        <ele>418.79</ele>
        <time>2016-06-06T09:03:40Z</time>
      </trkpt>
      <trkpt lat="46.5339" lon="4.78933">
        <ele>419.75</ele>
        <time>2016-06-06T09:03:44Z</time>
      </trkpt>
      <trkpt lat="46.53405" lon="4.78937">
        <ele>423.12</ele>
        <time>2016-06-06T09:03:57Z</time>
      </trkpt>
      <trkpt lat="46.53431" lon="4.78939">
        <ele>426.96</ele>
        <time>2016-06-06T09:04:12Z</time>
      </trkpt>
      <trkpt lat="46.53457" lon="4.78936">
        <ele>429.85</ele>
        <time>2016-06-06T09:04:28Z</time>
      </trkpt>
      <trkpt lat="46.53466" lon="4.78938">
        <ele>429.85</ele>
        <time>2016-06-06T09:04:34Z</time>
      </trkpt>
      <trkpt lat="46.53485" lon="4.78929">
        <ele>428.4</ele>
        <time>2016-06-06T09:04:46Z</time>
      </trkpt>
      <trkpt lat="46.53506" lon="4.78913">
        <ele>427.92</ele>
        <time>2016-06-06T09:05:02Z</time>
      </trkpt>
      <trkpt lat="46.5352" lon="4.78903">
        <ele>431.77</ele>
        <time>2016-06-06T09:05:12Z</time>
      </trkpt>
      <trkpt lat="46.53529" lon="4.78896">
        <ele>435.61</ele>
        <time>2016-06-06T09:05:18Z</time>
      </trkpt>
      <trkpt lat="46.53558" lon="4.7888">
        <ele>448.59</ele>
        <time>2016-06-06T09:05:33Z</time>
      </trkpt>
      <trkpt lat="46.5359" lon="4.78881">
        <ele>454.84</ele>
        <time>2016-06-06T09:05:46Z</time>
      </trkpt>
      <trkpt lat="46.5362" lon="4.78893">
        <ele>453.88</ele>
        <time>2016-06-06T09:05:59Z</time>
      </trkpt>
      <trkpt lat="46.53651" lon="4.78906">
        <ele>451</ele>
        <time>2016-06-06T09:06:07Z</time>
      </trkpt>
      <trkpt lat="46.53696" lon="4.78928">
        <ele>447.63</ele>
        <time>2016-06-06T09:06:17Z</time>
      </trkpt>
      <trkpt lat="46.53704" lon="4.78935">
        <ele>446.19</ele>
        <time>2016-06-06T09:06:19Z</time>
      </trkpt>
      <trkpt lat="46.5373" lon="4.78944">
        <ele>443.79</ele>
        <time>2016-06-06T09:06:24Z</time>
      </trkpt>
      <trkpt lat="46.53764" lon="4.7896">
        <ele>433.21</ele>
        <time>2016-06-06T09:06:29Z</time>
      </trkpt>
      <trkpt lat="46.53807" lon="4.78979">
        <ele>419.75</ele>
        <time>2016-06-06T09:06:38Z</time>
      </trkpt>
      <trkpt lat="46.53818" lon="4.78989">
        <ele>413.98</ele>
        <time>2016-06-06T09:06:43Z</time>
      </trkpt>
      <trkpt lat="46.53823" lon="4.78992">
        <ele>412.54</ele>
        <time>2016-06-06T09:06:46Z</time>
      </trkpt>
      <trkpt lat="46.53835" lon="4.7901">
        <ele>404.37</ele>
        <time>2016-06-06T09:06:59Z</time>
      </trkpt>
      <trkpt lat="46.53838" lon="4.79014">
        <ele>400.53</ele>
        <time>2016-06-06T09:07:17Z</time>
      </trkpt>
      <trkpt lat="46.53846" lon="4.79025">
        <ele>398.12</ele>
        <time>2016-06-06T09:07:28Z</time>
      </trkpt>
      <trkpt lat="46.53866" lon="4.79038">
        <ele>399.08</ele>
        <time>2016-06-06T09:07:36Z</time>
      </trkpt>
      <trkpt lat="46.53875" lon="4.7904">
        <ele>401.97</ele>
        <time>2016-06-06T09:07:40Z</time>
      </trkpt>
      <trkpt lat="46.53902" lon="4.79046">
        <ele>405.33</ele>
        <time>2016-06-06T09:07:54Z</time>
      </trkpt>
      <trkpt lat="46.53908" lon="4.79048">
        <ele>406.29</ele>
        <time>2016-06-06T09:07:58Z</time>
      </trkpt>
      <trkpt lat="46.53923" lon="4.79048">
        <ele>409.66</ele>
        <time>2016-06-06T09:08:10Z</time>
      </trkpt>
      <trkpt lat="46.53936" lon="4.79052">
        <ele>410.62</ele>
        <time>2016-06-06T09:08:25Z</time>
      </trkpt>
      <trkpt lat="46.53942" lon="4.79055">
        <ele>410.62</ele>
        <time>2016-06-06T09:08:29Z</time>
      </trkpt>
      <trkpt lat="46.53962" lon="4.79059">
        <ele>410.62</ele>
        <time>2016-06-06T09:08:37Z</time>
      </trkpt>
      <trkpt lat="46.5397" lon="4.79065">
        <ele>412.54</ele>
        <time>2016-06-06T09:08:44Z</time>
      </trkpt>
      <trkpt lat="46.5399" lon="4.79062">
        <ele>413.98</ele>
        <time>2016-06-06T09:08:56Z</time>
      </trkpt>
      <trkpt lat="46.54009" lon="4.7907">
        <ele>411.58</ele>
        <time>2016-06-06T09:09:12Z</time>
      </trkpt>
      <trkpt lat="46.54035" lon="4.79079">
        <ele>409.66</ele>
        <time>2016-06-06T09:09:25Z</time>
      </trkpt>
      <trkpt lat="46.54066" lon="4.7909">
        <ele>408.22</ele>
        <time>2016-06-06T09:09:37Z</time>
      </trkpt>
      <trkpt lat="46.54091" lon="4.79088">
        <ele>409.18</ele>
        <time>2016-06-06T09:09:47Z</time>
      </trkpt>
      <trkpt lat="46.54093" lon="4.79089">
        <ele>409.18</ele>
        <time>2016-06-06T09:09:48Z</time>
      </trkpt>
      <trkpt lat="46.541" lon="4.79094">
        <ele>409.18</ele>
        <time>2016-06-06T09:09:52Z</time>
      </trkpt>
      <trkpt lat="46.54133" lon="4.79098">
        <ele>409.18</ele>
        <time>2016-06-06T09:10:02Z</time>
      </trkpt>
      <trkpt lat="46.5416" lon="4.79097">
        <ele>412.06</ele>
        <time>2016-06-06T09:10:14Z</time>
      </trkpt>
      <trkpt lat="46.5417" lon="4.79097">
        <ele>413.02</ele>
        <time>2016-06-06T09:10:18Z</time>
      </trkpt>
      <trkpt lat="46.54186" lon="4.79096">
        <ele>413.5</ele>
        <time>2016-06-06T09:10:26Z</time>
      </trkpt>
      <trkpt lat="46.5419" lon="4.79097">
        <ele>413.5</ele>
        <time>2016-06-06T09:10:28Z</time>
      </trkpt>
      <trkpt lat="46.54202" lon="4.79103">
        <ele>411.1</ele>
        <time>2016-06-06T09:10:42Z</time>
      </trkpt>
      <trkpt lat="46.54215" lon="4.7911">
        <ele>407.26</ele>
        <time>2016-06-06T09:10:56Z</time>
      </trkpt>
      <trkpt lat="46.54218" lon="4.7911">
        <ele>405.81</ele>
        <time>2016-06-06T09:11:02Z</time>
      </trkpt>
      <trkpt lat="46.54236" lon="4.79112">
        <ele>405.81</ele>
        <time>2016-06-06T09:11:13Z</time>
      </trkpt>
      <trkpt lat="46.54251" lon="4.79119">
        <ele>406.77</ele>
        <time>2016-06-06T09:11:26Z</time>
      </trkpt>
      <trkpt lat="46.5427" lon="4.7913">
        <ele>409.66</ele>
        <time>2016-06-06T09:11:40Z</time>
      </trkpt>
      <trkpt lat="46.54301" lon="4.79136">
        <ele>411.1</ele>
        <time>2016-06-06T09:11:54Z</time>
      </trkpt>
      <trkpt lat="46.5433" lon="4.7914">
        <ele>411.1</ele>
        <time>2016-06-06T09:12:01Z</time>
      </trkpt>
      <trkpt lat="46.54349" lon="4.7914">
        <ele>409.66</ele>
        <time>2016-06-06T09:12:10Z</time>
      </trkpt>
      <trkpt lat="46.54356" lon="4.79141">
        <ele>405.33</ele>
        <time>2016-06-06T09:12:44Z</time>
      </trkpt>
      <trkpt lat="46.54359" lon="4.7914">
        <ele>408.22</ele>
        <time>2016-06-06T09:13:18Z</time>
      </trkpt>
      <trkpt lat="46.54359" lon="4.79144">
        <ele>405.81</ele>
        <time>2016-06-06T09:13:59Z</time>
      </trkpt>
      <trkpt lat="46.54355" lon="4.79149">
        <ele>404.37</ele>
        <time>2016-06-06T09:14:37Z</time>
      </trkpt>
      <trkpt lat="46.54355" lon="4.79148">
        <ele>405.33</ele>
        <time>2016-06-06T09:15:19Z</time>
      </trkpt>
      <trkpt lat="46.54356" lon="4.79144">
        <ele>404.85</ele>
        <time>2016-06-06T09:15:57Z</time>
      </trkpt>
      <trkpt lat="46.54357" lon="4.79143">
        <ele>403.89</ele>
        <time>2016-06-06T09:16:14Z</time>
      </trkpt>
      <trkpt lat="46.5436" lon="4.79141">
        <ele>400.53</ele>
        <time>2016-06-06T09:16:33Z</time>
      </trkpt>
      <trkpt lat="46.54367" lon="4.79141">
        <ele>399.08</ele>
        <time>2016-06-06T09:16:50Z</time>
      </trkpt>
      <trkpt lat="46.54372" lon="4.79144">
        <ele>399.08</ele>
        <time>2016-06-06T09:17:12Z</time>
      </trkpt>
      <trkpt lat="46.54381" lon="4.79146">
        <ele>396.2</ele>
        <time>2016-06-06T09:17:23Z</time>
      </trkpt>
      <trkpt lat="46.54383" lon="4.79148">
        <ele>396.68</ele>
        <time>2016-06-06T09:17:51Z</time>
      </trkpt>
      <trkpt lat="46.54384" lon="4.79149">
        <ele>396.68</ele>
        <time>2016-06-06T09:17:52Z</time>
      </trkpt>
      <trkpt lat="46.544" lon="4.79155">
        <ele>395.72</ele>
        <time>2016-06-06T09:18:04Z</time>
      </trkpt>
      <trkpt lat="46.54407" lon="4.79158">
        <ele>393.8</ele>
        <time>2016-06-06T09:18:11Z</time>
      </trkpt>
      <trkpt lat="46.54416" lon="4.7916">
        <ele>392.84</ele>
        <time>2016-06-06T09:18:15Z</time>
      </trkpt>
      <trkpt lat="46.54428" lon="4.79163">
        <ele>391.87</ele>
        <time>2016-06-06T09:18:27Z</time>
      </trkpt>
      <trkpt lat="46.54428" lon="4.79163">
        <ele>388.99</ele>
        <time>2016-06-06T09:18:40Z</time>
      </trkpt>
      <trkpt lat="46.54426" lon="4.79162">
        <ele>388.99</ele>
        <time>2016-06-06T09:18:54Z</time>
      </trkpt>
      <trkpt lat="46.54422" lon="4.79161">
        <ele>389.47</ele>
        <time>2016-06-06T09:19:00Z</time>
      </trkpt>
      <trkpt lat="46.54419" lon="4.7916">
        <ele>390.43</ele>
        <time>2016-06-06T09:19:04Z</time>
      </trkpt>
      <trkpt lat="46.54401" lon="4.79153">
        <ele>391.87</ele>
        <time>2016-06-06T09:19:19Z</time>
      </trkpt>
      <trkpt lat="46.54382" lon="4.79145">
        <ele>392.36</ele>
        <time>2016-06-06T09:19:33Z</time>
      </trkpt>
      <trkpt lat="46.54363" lon="4.79142">
        <ele>392.84</ele>
        <time>2016-06-06T09:19:47Z</time>
      </trkpt>
      <trkpt lat="46.54351" lon="4.7914">
        <ele>394.28</ele>
        <time>2016-06-06T09:20:07Z</time>
      </trkpt>
      <trkpt lat="46.54331" lon="4.79139">
        <ele>397.64</ele>
        <time>2016-06-06T09:20:20Z</time>
      </trkpt>
      <trkpt lat="46.54311" lon="4.79135">
        <ele>397.16</ele>
        <time>2016-06-06T09:20:34Z</time>
      </trkpt>
      <trkpt lat="46.54292" lon="4.79134">
        <ele>394.76</ele>
        <time>2016-06-06T09:20:47Z</time>
      </trkpt>
      <trkpt lat="46.54284" lon="4.79133">
        <ele>395.24</ele>
        <time>2016-06-06T09:20:51Z</time>
      </trkpt>
      <trkpt lat="46.54275" lon="4.7913">
        <ele>395.24</ele>
        <time>2016-06-06T09:20:55Z</time>
      </trkpt>
      <trkpt lat="46.54265" lon="4.79122">
        <ele>395.72</ele>
        <time>2016-06-06T09:21:01Z</time>
      </trkpt>
      <trkpt lat="46.5425" lon="4.79117">
        <ele>394.76</ele>
        <time>2016-06-06T09:21:07Z</time>
      </trkpt>
      <trkpt lat="46.54225" lon="4.79112">
        <ele>392.84</ele>
        <time>2016-06-06T09:21:17Z</time>
      </trkpt>
      <trkpt lat="46.54217" lon="4.79111">
        <ele>394.28</ele>
        <time>2016-06-06T09:21:41Z</time>
      </trkpt>
      <trkpt lat="46.54215" lon="4.7911">
        <ele>392.36</ele>
        <time>2016-06-06T09:22:02Z</time>
      </trkpt>
      <trkpt lat="46.54215" lon="4.79111">
        <ele>390.91</ele>
        <time>2016-06-06T09:22:16Z</time>
      </trkpt>
      <trkpt lat="46.54223" lon="4.79112">
        <ele>391.39</ele>
        <time>2016-06-06T09:22:30Z</time>
      </trkpt>
      <trkpt lat="46.54225" lon="4.79112">
        <ele>392.36</ele>
        <time>2016-06-06T09:22:33Z</time>
      </trkpt>
      <trkpt lat="46.54247" lon="4.79116">
        <ele>400.05</ele>
        <time>2016-06-06T09:22:50Z</time>
      </trkpt>
      <trkpt lat="46.54262" lon="4.79127">
        <ele>405.33</ele>
        <time>2016-06-06T09:23:03Z</time>
      </trkpt>
      <trkpt lat="46.54286" lon="4.79131">
        <ele>411.58</ele>
        <time>2016-06-06T09:23:17Z</time>
      </trkpt>
      <trkpt lat="46.54316" lon="4.79138">
        <ele>413.02</ele>
        <time>2016-06-06T09:23:26Z</time>
      </trkpt>
      <trkpt lat="46.54349" lon="4.7914">
        <ele>412.06</ele>
        <time>2016-06-06T09:23:37Z</time>
      </trkpt>
      <trkpt lat="46.54368" lon="4.79146">
        <ele>409.66</ele>
        <time>2016-06-06T09:23:45Z</time>
      </trkpt>
      <trkpt lat="46.54403" lon="4.79158">
        <ele>406.77</ele>
        <time>2016-06-06T09:23:55Z</time>
      </trkpt>
      <trkpt lat="46.54428" lon="4.79173">
        <ele>405.33</ele>
        <time>2016-06-06T09:24:06Z</time>
      </trkpt>
      <trkpt lat="46.54458" lon="4.79209">
        <ele>398.6</ele>
        <time>2016-06-06T09:24:20Z</time>
      </trkpt>
      <trkpt lat="46.54475" lon="4.79237">
        <ele>398.12</ele>
        <time>2016-06-06T09:24:31Z</time>
      </trkpt>
      <trkpt lat="46.5448" lon="4.79254">
        <ele>396.68</ele>
        <time>2016-06-06T09:24:35Z</time>
      </trkpt>
      <trkpt lat="46.54481" lon="4.79284">
        <ele>395.24</ele>
        <time>2016-06-06T09:24:49Z</time>
      </trkpt>
      <trkpt lat="46.5447" lon="4.79323">
        <ele>392.36</ele>
        <time>2016-06-06T09:25:02Z</time>
      </trkpt>
      <trkpt lat="46.54458" lon="4.7936">
        <ele>389.47</ele>
        <time>2016-06-06T09:25:12Z</time>
      </trkpt>
      <trkpt lat="46.54445" lon="4.79402">
        <ele>386.59</ele>
        <time>2016-06-06T09:25:22Z</time>
      </trkpt>
      <trkpt lat="46.54442" lon="4.79447">
        <ele>382.26</ele>
        <time>2016-06-06T09:25:33Z</time>
      </trkpt>
      <trkpt lat="46.54444" lon="4.79491">
        <ele>376.01</ele>
        <time>2016-06-06T09:25:43Z</time>
      </trkpt>
      <trkpt lat="46.54453" lon="4.79548">
        <ele>365.44</ele>
        <time>2016-06-06T09:25:55Z</time>
      </trkpt>
      <trkpt lat="46.54451" lon="4.79602">
        <ele>353.9</ele>
        <time>2016-06-06T09:26:04Z</time>
      </trkpt>
      <trkpt lat="46.54452" lon="4.7961">
        <ele>352.46</ele>
        <time>2016-06-06T09:26:06Z</time>
      </trkpt>
      <trkpt lat="46.54449" lon="4.79653">
        <ele>344.77</ele>
        <time>2016-06-06T09:26:14Z</time>
      </trkpt>
      <trkpt lat="46.54434" lon="4.79678">
        <ele>339.48</ele>
        <time>2016-06-06T09:26:21Z</time>
      </trkpt>
      <trkpt lat="46.54432" lon="4.79681">
        <ele>339</ele>
        <time>2016-06-06T09:26:22Z</time>
      </trkpt>
      <trkpt lat="46.54431" lon="4.79686">
        <ele>338.52</ele>
        <time>2016-06-06T09:26:23Z</time>
      </trkpt>
      <trkpt lat="46.54429" lon="4.7969">
        <ele>338.04</ele>
        <time>2016-06-06T09:26:24Z</time>
      </trkpt>
      <trkpt lat="46.54427" lon="4.79694">
        <ele>338.04</ele>
        <time>2016-06-06T09:26:25Z</time>
      </trkpt>
      <trkpt lat="46.54425" lon="4.79702">
        <ele>338.04</ele>
        <time>2016-06-06T09:26:27Z</time>
      </trkpt>
      <trkpt lat="46.54427" lon="4.79705">
        <ele>337.56</ele>
        <time>2016-06-06T09:26:28Z</time>
      </trkpt>
      <trkpt lat="46.5443" lon="4.79709">
        <ele>338.04</ele>
        <time>2016-06-06T09:26:29Z</time>
      </trkpt>
      <trkpt lat="46.54465" lon="4.79702">
        <ele>335.64</ele>
        <time>2016-06-06T09:26:36Z</time>
      </trkpt>
      <trkpt lat="46.54483" lon="4.79708">
        <ele>333.23</ele>
        <time>2016-06-06T09:26:43Z</time>
      </trkpt>
      <trkpt lat="46.54505" lon="4.79744">
        <ele>331.79</ele>
        <time>2016-06-06T09:26:54Z</time>
      </trkpt>
      <trkpt lat="46.54523" lon="4.7977">
        <ele>334.2</ele>
        <time>2016-06-06T09:27:08Z</time>
      </trkpt>
      <trkpt lat="46.54524" lon="4.79771">
        <ele>334.68</ele>
        <time>2016-06-06T09:27:09Z</time>
      </trkpt>
      <trkpt lat="46.54538" lon="4.79776">
        <ele>337.56</ele>
        <time>2016-06-06T09:27:21Z</time>
      </trkpt>
      <trkpt lat="46.54554" lon="4.79777">
        <ele>340.92</ele>
        <time>2016-06-06T09:27:37Z</time>
      </trkpt>
      <trkpt lat="46.54574" lon="4.79773">
        <ele>346.21</ele>
        <time>2016-06-06T09:27:51Z</time>
      </trkpt>
      <trkpt lat="46.54598" lon="4.79767">
        <ele>350.54</ele>
        <time>2016-06-06T09:28:07Z</time>
      </trkpt>
      <trkpt lat="46.54608" lon="4.79762">
        <ele>354.38</ele>
        <time>2016-06-06T09:28:20Z</time>
      </trkpt>
      <trkpt lat="46.54624" lon="4.79759">
        <ele>357.27</ele>
        <time>2016-06-06T09:28:37Z</time>
      </trkpt>
      <trkpt lat="46.54634" lon="4.79753">
        <ele>362.07</ele>
        <time>2016-06-06T09:28:53Z</time>
      </trkpt>
      <trkpt lat="46.54643" lon="4.79741">
        <ele>363.04</ele>
        <time>2016-06-06T09:29:08Z</time>
      </trkpt>
      <trkpt lat="46.54655" lon="4.7973">
        <ele>364.48</ele>
        <time>2016-06-06T09:29:25Z</time>
      </trkpt>
      <trkpt lat="46.54666" lon="4.79717">
        <ele>368.32</ele>
        <time>2016-06-06T09:29:40Z</time>
      </trkpt>
      <trkpt lat="46.54671" lon="4.79717">
        <ele>370.24</ele>
        <time>2016-06-06T09:29:54Z</time>
      </trkpt>
      <trkpt lat="46.5467" lon="4.79718">
        <ele>372.65</ele>
        <time>2016-06-06T09:30:23Z</time>
      </trkpt>
      <trkpt lat="46.54671" lon="4.79716">
        <ele>372.65</ele>
        <time>2016-06-06T09:30:43Z</time>
      </trkpt>
      <trkpt lat="46.54663" lon="4.79734">
        <ele>371.69</ele>
        <time>2016-06-06T09:30:54Z</time>
      </trkpt>
      <trkpt lat="46.54661" lon="4.79736">
        <ele>371.21</ele>
        <time>2016-06-06T09:30:55Z</time>
      </trkpt>
      <trkpt lat="46.54641" lon="4.79774">
        <ele>368.32</ele>
        <time>2016-06-06T09:31:09Z</time>
      </trkpt>
      <trkpt lat="46.54607" lon="4.79817">
        <ele>367.84</ele>
        <time>2016-06-06T09:31:23Z</time>
      </trkpt>
      <trkpt lat="46.54564" lon="4.79861">
        <ele>368.8</ele>
        <time>2016-06-06T09:31:39Z</time>
      </trkpt>
      <trkpt lat="46.54523" lon="4.79886">
        <ele>371.21</ele>
        <time>2016-06-06T09:31:52Z</time>
      </trkpt>
      <trkpt lat="46.54475" lon="4.79929">
        <ele>370.24</ele>
        <time>2016-06-06T09:32:07Z</time>
      </trkpt>
      <trkpt lat="46.54456" lon="4.79953">
        <ele>368.8</ele>
        <time>2016-06-06T09:32:13Z</time>
      </trkpt>
      <trkpt lat="46.5445" lon="4.79961">
        <ele>368.8</ele>
        <time>2016-06-06T09:32:15Z</time>
      </trkpt>
      <trkpt lat="46.54399" lon="4.80001">
        <ele>366.88</ele>
        <time>2016-06-06T09:32:30Z</time>
      </trkpt>
      <trkpt lat="46.54369" lon="4.80008">
        <ele>366.88</ele>
        <time>2016-06-06T09:32:38Z</time>
      </trkpt>
      <trkpt lat="46.54365" lon="4.80009">
        <ele>366.4</ele>
        <time>2016-06-06T09:32:39Z</time>
      </trkpt>
      <trkpt lat="46.54344" lon="4.80017">
        <ele>365.92</ele>
        <time>2016-06-06T09:32:44Z</time>
      </trkpt>
      <trkpt lat="46.54335" lon="4.80019">
        <ele>365.44</ele>
        <time>2016-06-06T09:32:46Z</time>
      </trkpt>
      <trkpt lat="46.54321" lon="4.80024">
        <ele>364.96</ele>
        <time>2016-06-06T09:32:49Z</time>
      </trkpt>
      <trkpt lat="46.54309" lon="4.80031">
        <ele>364.96</ele>
        <time>2016-06-06T09:32:52Z</time>
      </trkpt>
      <trkpt lat="46.54305" lon="4.80033">
        <ele>364.96</ele>
        <time>2016-06-06T09:32:53Z</time>
      </trkpt>
      <trkpt lat="46.54254" lon="4.80055">
        <ele>364.48</ele>
        <time>2016-06-06T09:33:07Z</time>
      </trkpt>
      <trkpt lat="46.54238" lon="4.8006">
        <ele>363.52</ele>
        <time>2016-06-06T09:33:11Z</time>
      </trkpt>
      <trkpt lat="46.54205" lon="4.80071">
        <ele>362.07</ele>
        <time>2016-06-06T09:33:18Z</time>
      </trkpt>
      <trkpt lat="46.54174" lon="4.80082">
        <ele>360.63</ele>
        <time>2016-06-06T09:33:24Z</time>
      </trkpt>
      <trkpt lat="46.54169" lon="4.80082">
        <ele>360.63</ele>
        <time>2016-06-06T09:33:25Z</time>
      </trkpt>
      <trkpt lat="46.54164" lon="4.80082">
        <ele>360.15</ele>
        <time>2016-06-06T09:33:26Z</time>
      </trkpt>
      <trkpt lat="46.5416" lon="4.80081">
        <ele>360.15</ele>
        <time>2016-06-06T09:33:27Z</time>
      </trkpt>
      <trkpt lat="46.54155" lon="4.80078">
        <ele>359.67</ele>
        <time>2016-06-06T09:33:28Z</time>
      </trkpt>
      <trkpt lat="46.54151" lon="4.80075">
        <ele>359.19</ele>
        <time>2016-06-06T09:33:29Z</time>
      </trkpt>
      <trkpt lat="46.54143" lon="4.80067">
        <ele>358.71</ele>
        <time>2016-06-06T09:33:31Z</time>
      </trkpt>
      <trkpt lat="46.54139" lon="4.80065">
        <ele>358.23</ele>
        <time>2016-06-06T09:33:32Z</time>
      </trkpt>
      <trkpt lat="46.54134" lon="4.80065">
        <ele>358.23</ele>
        <time>2016-06-06T09:33:33Z</time>
      </trkpt>
      <trkpt lat="46.5413" lon="4.80067">
        <ele>358.23</ele>
        <time>2016-06-06T09:33:34Z</time>
      </trkpt>
      <trkpt lat="46.54127" lon="4.8007">
        <ele>358.23</ele>
        <time>2016-06-06T09:33:35Z</time>
      </trkpt>
      <trkpt lat="46.54092" lon="4.80096">
        <ele>358.71</ele>
        <time>2016-06-06T09:33:46Z</time>
      </trkpt>
      <trkpt lat="46.54089" lon="4.80097">
        <ele>358.71</ele>
        <time>2016-06-06T09:33:47Z</time>
      </trkpt>
      <trkpt lat="46.54086" lon="4.80101">
        <ele>358.71</ele>
        <time>2016-06-06T09:33:48Z</time>
      </trkpt>
      <trkpt lat="46.54086" lon="4.8011">
        <ele>358.71</ele>
        <time>2016-06-06T09:33:50Z</time>
      </trkpt>
      <trkpt lat="46.54088" lon="4.80113">
        <ele>358.71</ele>
        <time>2016-06-06T09:33:51Z</time>
      </trkpt>
      <trkpt lat="46.5409" lon="4.80114">
        <ele>358.71</ele>
        <time>2016-06-06T09:33:52Z</time>
      </trkpt>
      <trkpt lat="46.54091" lon="4.80116">
        <ele>359.19</ele>
        <time>2016-06-06T09:33:53Z</time>
      </trkpt>
      <trkpt lat="46.54094" lon="4.8012">
        <ele>359.19</ele>
        <time>2016-06-06T09:33:55Z</time>
      </trkpt>
      <trkpt lat="46.54098" lon="4.80128">
        <ele>359.67</ele>
        <time>2016-06-06T09:33:58Z</time>
      </trkpt>
      <trkpt lat="46.54097" lon="4.8014">
        <ele>359.67</ele>
        <time>2016-06-06T09:34:03Z</time>
      </trkpt>
      <trkpt lat="46.541" lon="4.8014">
        <ele>359.67</ele>
        <time>2016-06-06T09:34:13Z</time>
      </trkpt>
      <trkpt lat="46.54099" lon="4.80133">
        <ele>359.19</ele>
        <time>2016-06-06T09:34:15Z</time>
      </trkpt>
      <trkpt lat="46.54094" lon="4.80115">
        <ele>358.71</ele>
        <time>2016-06-06T09:34:20Z</time>
      </trkpt>
      <trkpt lat="46.54071" lon="4.80095">
        <ele>356.31</ele>
        <time>2016-06-06T09:34:32Z</time>
      </trkpt>
      <trkpt lat="46.54061" lon="4.80093">
        <ele>355.34</ele>
        <time>2016-06-06T09:34:36Z</time>
      </trkpt>
      <trkpt lat="46.5406" lon="4.80095">
        <ele>355.34</ele>
        <time>2016-06-06T09:34:37Z</time>
      </trkpt>
      <trkpt lat="46.54059" lon="4.80097">
        <ele>355.34</ele>
        <time>2016-06-06T09:34:38Z</time>
      </trkpt>
      <trkpt lat="46.54058" lon="4.80145">
        <ele>351.5</ele>
        <time>2016-06-06T09:34:48Z</time>
      </trkpt>
      <trkpt lat="46.54059" lon="4.80152">
        <ele>350.54</ele>
        <time>2016-06-06T09:34:49Z</time>
      </trkpt>
      <trkpt lat="46.5406" lon="4.80159">
        <ele>350.06</ele>
        <time>2016-06-06T09:34:50Z</time>
      </trkpt>
      <trkpt lat="46.54064" lon="4.80172">
        <ele>348.13</ele>
        <time>2016-06-06T09:34:52Z</time>
      </trkpt>
      <trkpt lat="46.54071" lon="4.80193">
        <ele>346.21</ele>
        <time>2016-06-06T09:34:55Z</time>
      </trkpt>
      <trkpt lat="46.54071" lon="4.80201">
        <ele>345.73</ele>
        <time>2016-06-06T09:34:56Z</time>
      </trkpt>
      <trkpt lat="46.54071" lon="4.80209">
        <ele>345.25</ele>
        <time>2016-06-06T09:34:57Z</time>
      </trkpt>
      <trkpt lat="46.54069" lon="4.80217">
        <ele>344.29</ele>
        <time>2016-06-06T09:34:58Z</time>
      </trkpt>
      <trkpt lat="46.54065" lon="4.80224">
        <ele>343.81</ele>
        <time>2016-06-06T09:34:59Z</time>
      </trkpt>
      <trkpt lat="46.5406" lon="4.8023">
        <ele>343.33</ele>
        <time>2016-06-06T09:35:00Z</time>
      </trkpt>
      <trkpt lat="46.54054" lon="4.80235">
        <ele>342.37</ele>
        <time>2016-06-06T09:35:01Z</time>
      </trkpt>
      <trkpt lat="46.54049" lon="4.80239">
        <ele>342.37</ele>
        <time>2016-06-06T09:35:02Z</time>
      </trkpt>
      <trkpt lat="46.54044" lon="4.80243">
        <ele>341.89</ele>
        <time>2016-06-06T09:35:03Z</time>
      </trkpt>
      <trkpt lat="46.54041" lon="4.80246">
        <ele>341.89</ele>
        <time>2016-06-06T09:35:04Z</time>
      </trkpt>
      <trkpt lat="46.54028" lon="4.80252">
        <ele>341.41</ele>
        <time>2016-06-06T09:35:09Z</time>
      </trkpt>
      <trkpt lat="46.53988" lon="4.80235">
        <ele>341.41</ele>
        <time>2016-06-06T09:35:22Z</time>
      </trkpt>
      <trkpt lat="46.53944" lon="4.80222">
        <ele>341.89</ele>
        <time>2016-06-06T09:35:36Z</time>
      </trkpt>
      <trkpt lat="46.53909" lon="4.8021">
        <ele>341.41</ele>
        <time>2016-06-06T09:35:48Z</time>
      </trkpt>
      <trkpt lat="46.53869" lon="4.80206">
        <ele>341.41</ele>
        <time>2016-06-06T09:36:00Z</time>
      </trkpt>
      <trkpt lat="46.53826" lon="4.80219">
        <ele>342.85</ele>
        <time>2016-06-06T09:36:13Z</time>
      </trkpt>
      <trkpt lat="46.53779" lon="4.80233">
        <ele>344.29</ele>
        <time>2016-06-06T09:36:28Z</time>
      </trkpt>
      <trkpt lat="46.53736" lon="4.80248">
        <ele>345.73</ele>
        <time>2016-06-06T09:36:43Z</time>
      </trkpt>
      <trkpt lat="46.53692" lon="4.80259">
        <ele>346.69</ele>
        <time>2016-06-06T09:36:58Z</time>
      </trkpt>
      <trkpt lat="46.53655" lon="4.80277">
        <ele>346.21</ele>
        <time>2016-06-06T09:37:09Z</time>
      </trkpt>
      <trkpt lat="46.53614" lon="4.80325">
        <ele>347.17</ele>
        <time>2016-06-06T09:37:25Z</time>
      </trkpt>
      <trkpt lat="46.53607" lon="4.80339">
        <ele>346.69</ele>
        <time>2016-06-06T09:37:28Z</time>
      </trkpt>
      <trkpt lat="46.53598" lon="4.80355">
        <ele>345.73</ele>
        <time>2016-06-06T09:37:31Z</time>
      </trkpt>
      <trkpt lat="46.5358" lon="4.80385">
        <ele>343.33</ele>
        <time>2016-06-06T09:37:36Z</time>
      </trkpt>
      <trkpt lat="46.53562" lon="4.80408">
        <ele>340.44</ele>
        <time>2016-06-06T09:37:40Z</time>
      </trkpt>
      <trkpt lat="46.53538" lon="4.80433">
        <ele>336.6</ele>
        <time>2016-06-06T09:37:45Z</time>
      </trkpt>
      <trkpt lat="46.53507" lon="4.80492">
        <ele>330.35</ele>
        <time>2016-06-06T09:37:52Z</time>
      </trkpt>
      <trkpt lat="46.53489" lon="4.80541">
        <ele>327.95</ele>
        <time>2016-06-06T09:37:58Z</time>
      </trkpt>
      <trkpt lat="46.53482" lon="4.80554">
        <ele>326.99</ele>
        <time>2016-06-06T09:38:01Z</time>
      </trkpt>
      <trkpt lat="46.53465" lon="4.80539">
        <ele>323.62</ele>
        <time>2016-06-06T09:38:08Z</time>
      </trkpt>
      <trkpt lat="46.5346" lon="4.80535">
        <ele>323.14</ele>
        <time>2016-06-06T09:38:10Z</time>
      </trkpt>
      <trkpt lat="46.53453" lon="4.80533">
        <ele>322.18</ele>
        <time>2016-06-06T09:38:12Z</time>
      </trkpt>
      <trkpt lat="46.53433" lon="4.80521">
        <ele>318.33</ele>
        <time>2016-06-06T09:38:18Z</time>
      </trkpt>
      <trkpt lat="46.53423" lon="4.80519">
        <ele>316.89</ele>
        <time>2016-06-06T09:38:20Z</time>
      </trkpt>
      <trkpt lat="46.53413" lon="4.80483">
        <ele>312.57</ele>
        <time>2016-06-06T09:38:27Z</time>
      </trkpt>
      <trkpt lat="46.53413" lon="4.80471">
        <ele>312.57</ele>
        <time>2016-06-06T09:38:29Z</time>
      </trkpt>
      <trkpt lat="46.53405" lon="4.80421">
        <ele>309.68</ele>
        <time>2016-06-06T09:38:38Z</time>
      </trkpt>
      <trkpt lat="46.53398" lon="4.80397">
        <ele>308.24</ele>
        <time>2016-06-06T09:38:42Z</time>
      </trkpt>
      <trkpt lat="46.53379" lon="4.80352">
        <ele>305.84</ele>
        <time>2016-06-06T09:38:53Z</time>
      </trkpt>
      <trkpt lat="46.53355" lon="4.80313">
        <ele>302.47</ele>
        <time>2016-06-06T09:39:06Z</time>
      </trkpt>
      <trkpt lat="46.53347" lon="4.80307">
        <ele>301.51</ele>
        <time>2016-06-06T09:39:08Z</time>
      </trkpt>
      <trkpt lat="46.53344" lon="4.80302">
        <ele>301.51</ele>
        <time>2016-06-06T09:39:09Z</time>
      </trkpt>
      <trkpt lat="46.53343" lon="4.80297">
        <ele>301.03</ele>
        <time>2016-06-06T09:39:10Z</time>
      </trkpt>
      <trkpt lat="46.53342" lon="4.8029">
        <ele>301.03</ele>
        <time>2016-06-06T09:39:11Z</time>
      </trkpt>
      <trkpt lat="46.53343" lon="4.80285">
        <ele>300.55</ele>
        <time>2016-06-06T09:39:12Z</time>
      </trkpt>
      <trkpt lat="46.53344" lon="4.80279">
        <ele>300.55</ele>
        <time>2016-06-06T09:39:13Z</time>
      </trkpt>
      <trkpt lat="46.53345" lon="4.80274">
        <ele>300.55</ele>
        <time>2016-06-06T09:39:14Z</time>
      </trkpt>
      <trkpt lat="46.5335" lon="4.80247">
        <ele>301.03</ele>
        <time>2016-06-06T09:39:20Z</time>
      </trkpt>
      <trkpt lat="46.53349" lon="4.80244">
        <ele>300.55</ele>
        <time>2016-06-06T09:39:21Z</time>
      </trkpt>
      <trkpt lat="46.53347" lon="4.80241">
        <ele>300.07</ele>
        <time>2016-06-06T09:39:22Z</time>
      </trkpt>
      <trkpt lat="46.53344" lon="4.80237">
        <ele>299.11</ele>
        <time>2016-06-06T09:39:23Z</time>
      </trkpt>
      <trkpt lat="46.5334" lon="4.80234">
        <ele>298.63</ele>
        <time>2016-06-06T09:39:24Z</time>
      </trkpt>
      <trkpt lat="46.53337" lon="4.80232">
        <ele>298.63</ele>
        <time>2016-06-06T09:39:25Z</time>
      </trkpt>
      <trkpt lat="46.53321" lon="4.80223">
        <ele>295.26</ele>
        <time>2016-06-06T09:39:34Z</time>
      </trkpt>
    </trkseg>
  </trk>
</gpx>